UAL1654 LEMD-SVMI
Flight info
| Callsign | UAL1654 |
|---|---|
| Flight time | 8h 48m |
| Altitude | 34000 |
| Route | BARD7L BARDI ABETO ERPES 39N020W 35N030W 29N040W 23N050W 20N055W ELJEZ UN669 ONGAL MASPA OPUTU KOMPU NETSI1 |
| Aircraft | B78X/H-V/N |
Departure
| Time | 2026-05-06 18:19 |
|---|---|
| Airport | Adolfo Suárez Madrid–Barajas Airport (LEMD) |
Arrival
| Time | 2026-05-07 03:07 |
|---|---|
| Airport | Maiquetía Simón Bolívar International Airport (SVMI) |
| Time | Latitude | Longitude | Altitude | Speed | Heading |
|---|---|---|---|---|---|
| 2026-05-06 17:42 | 40.48995 | -3.56644 | 2018 ft | 0 kts | 317° |
| 2026-05-06 17:58 | 40.49006 | -3.56655 | 2018 ft | 10 kts | 327° |
| 2026-05-06 17:58 | 40.49021 | -3.56665 | 2018 ft | 15 kts | 339° |
| 2026-05-06 17:58 | 40.49029 | -3.56669 | 2018 ft | 0 kts | 341° |
| 2026-05-06 17:59 | 40.49021 | -3.56666 | 2018 ft | 2 kts | 341° |
| 2026-05-06 17:59 | 40.49008 | -3.56660 | 2018 ft | 0 kts | 341° |
| 2026-05-06 17:59 | 40.48997 | -3.56655 | 2018 ft | 2 kts | 341° |
| 2026-05-06 18:00 | 40.48991 | -3.56652 | 2018 ft | 3 kts | 341° |
| 2026-05-06 18:00 | 40.48987 | -3.56651 | 2018 ft | 0 kts | 338° |
| 2026-05-06 18:00 | 40.48985 | -3.56650 | 2018 ft | 1 kts | 338° |
| 2026-05-06 18:00 | 40.48981 | -3.56647 | 2018 ft | 1 kts | 330° |
| 2026-05-06 18:01 | 40.48980 | -3.56647 | 2018 ft | 2 kts | 326° |
| 2026-05-06 18:01 | 40.48971 | -3.56639 | 2018 ft | 2 kts | 326° |
| 2026-05-06 18:01 | 40.48956 | -3.56625 | 2018 ft | 2 kts | 311° |
| 2026-05-06 18:02 | 40.48947 | -3.56612 | 2018 ft | 2 kts | 311° |
| 2026-05-06 18:02 | 40.48936 | -3.56595 | 2018 ft | 3 kts | 311° |
| 2026-05-06 18:02 | 40.48923 | -3.56575 | 2018 ft | 3 kts | 320° |
| 2026-05-06 18:02 | 40.48905 | -3.56564 | 2018 ft | 3 kts | 355° |
| 2026-05-06 18:03 | 40.48900 | -3.56564 | 2018 ft | 0 kts | 2° |
| 2026-05-06 18:03 | 40.48901 | -3.56564 | 2018 ft | 0 kts | 2° |
| 2026-05-06 18:05 | 40.48914 | -3.56561 | 2018 ft | 3 kts | 11° |
| 2026-05-06 18:06 | 40.48938 | -3.56556 | 2018 ft | 4 kts | 5° |
| 2026-05-06 18:06 | 40.48970 | -3.56555 | 2018 ft | 5 kts | 0° |
| 2026-05-06 18:06 | 40.49009 | -3.56555 | 2018 ft | 6 kts | 0° |
| 2026-05-06 18:06 | 40.49055 | -3.56555 | 2018 ft | 7 kts | 0° |
| 2026-05-06 18:07 | 40.49112 | -3.56555 | 2018 ft | 9 kts | 0° |
| 2026-05-06 18:07 | 40.49184 | -3.56555 | 2018 ft | 11 kts | 0° |
| 2026-05-06 18:07 | 40.49270 | -3.56555 | 2018 ft | 13 kts | 0° |
| 2026-05-06 18:07 | 40.49363 | -3.56555 | 2018 ft | 14 kts | 0° |
| 2026-05-06 18:08 | 40.49465 | -3.56555 | 2018 ft | 14 kts | 0° |
| 2026-05-06 18:08 | 40.49562 | -3.56555 | 2018 ft | 14 kts | 0° |
| 2026-05-06 18:08 | 40.49653 | -3.56555 | 2018 ft | 13 kts | 0° |
| 2026-05-06 18:08 | 40.49740 | -3.56555 | 2018 ft | 12 kts | 0° |
| 2026-05-06 18:09 | 40.49820 | -3.56555 | 2018 ft | 11 kts | 0° |
| 2026-05-06 18:09 | 40.49896 | -3.56554 | 2018 ft | 10 kts | 0° |
| 2026-05-06 18:09 | 40.49958 | -3.56554 | 2018 ft | 4 kts | 0° |
| 2026-05-06 18:09 | 40.49985 | -3.56554 | 2018 ft | 3 kts | 356° |
| 2026-05-06 18:10 | 40.50011 | -3.56572 | 2018 ft | 4 kts | 308° |
| 2026-05-06 18:10 | 40.50019 | -3.56606 | 2018 ft | 4 kts | 281° |
| 2026-05-06 18:10 | 40.50022 | -3.56639 | 2018 ft | 4 kts | 275° |
| 2026-05-06 18:10 | 40.50023 | -3.56682 | 2018 ft | 6 kts | 270° |
| 2026-05-06 18:11 | 40.50023 | -3.56742 | 2018 ft | 8 kts | 270° |
| 2026-05-06 18:11 | 40.50024 | -3.56817 | 2018 ft | 8 kts | 270° |
| 2026-05-06 18:11 | 40.50024 | -3.56894 | 2018 ft | 9 kts | 270° |
| 2026-05-06 18:11 | 40.50024 | -3.56975 | 2018 ft | 9 kts | 270° |
| 2026-05-06 18:12 | 40.50025 | -3.57054 | 2018 ft | 7 kts | 270° |
| 2026-05-06 18:12 | 40.50020 | -3.57107 | 2018 ft | 5 kts | 242° |
| 2026-05-06 18:12 | 40.49982 | -3.57125 | 2018 ft | 6 kts | 183° |
| 2026-05-06 18:12 | 40.49939 | -3.57126 | 2018 ft | 6 kts | 180° |
| 2026-05-06 18:13 | 40.49896 | -3.57126 | 2018 ft | 6 kts | 180° |
| 2026-05-06 18:13 | 40.49855 | -3.57126 | 2018 ft | 6 kts | 180° |
| 2026-05-06 18:13 | 40.49815 | -3.57126 | 2018 ft | 6 kts | 180° |
| 2026-05-06 18:13 | 40.49773 | -3.57127 | 2018 ft | 7 kts | 180° |
| 2026-05-06 18:14 | 40.49720 | -3.57126 | 2018 ft | 9 kts | 179° |
| 2026-05-06 18:14 | 40.49654 | -3.57125 | 2018 ft | 10 kts | 179° |
| 2026-05-06 18:14 | 40.49574 | -3.57124 | 2018 ft | 12 kts | 179° |
| 2026-05-06 18:14 | 40.49481 | -3.57125 | 2018 ft | 14 kts | 181° |
| 2026-05-06 18:15 | 40.49372 | -3.57128 | 2018 ft | 17 kts | 181° |
| 2026-05-06 18:15 | 40.49266 | -3.57130 | 2018 ft | 7 kts | 181° |
| 2026-05-06 18:15 | 40.49217 | -3.57132 | 2018 ft | 0 kts | 181° |
| 2026-05-06 18:15 | 40.49216 | -3.57132 | 2018 ft | 1 kts | 181° |
| 2026-05-06 18:16 | 40.49196 | -3.57139 | 2018 ft | 5 kts | 211° |
| 2026-05-06 18:16 | 40.49185 | -3.57167 | 2018 ft | 2 kts | 261° |
| 2026-05-06 18:16 | 40.49185 | -3.57179 | 2018 ft | 0 kts | 265° |
| 2026-05-06 18:16 | 40.49185 | -3.57181 | 2018 ft | 1 kts | 265° |
| 2026-05-06 18:17 | 40.49183 | -3.57229 | 2018 ft | 9 kts | 268° |
| 2026-05-06 18:17 | 40.49183 | -3.57293 | 2018 ft | 5 kts | 270° |
| 2026-05-06 18:17 | 40.49183 | -3.57323 | 2018 ft | 2 kts | 270° |
| 2026-05-06 18:17 | 40.49183 | -3.57328 | 2018 ft | 2 kts | 270° |
| 2026-05-06 18:18 | 40.49183 | -3.57370 | 2018 ft | 8 kts | 270° |
| 2026-05-06 18:18 | 40.49205 | -3.57447 | 2018 ft | 9 kts | 329° |
| 2026-05-06 18:18 | 40.49251 | -3.57466 | 2018 ft | 12 kts | 351° |
| 2026-05-06 18:18 | 40.49512 | -3.57468 | 2018 ft | 57 kts | 360° |
| 2026-05-06 18:19 | 40.49876 | -3.57469 | 2018 ft | 101 kts | 360° |
| 2026-05-06 18:19 | 40.50823 | -3.57469 | 2061 ft | 166 kts | 360° |
| 2026-05-06 18:19 | 40.52032 | -3.57468 | 2887 ft | 189 kts | 0° |
| 2026-05-06 18:19 | 40.53487 | -3.57477 | 3771 ft | 225 kts | 359° |
| 2026-05-06 18:20 | 40.55251 | -3.57659 | 3977 ft | 293 kts | 350° |
| 2026-05-06 18:20 | 40.57280 | -3.58829 | 4303 ft | 334 kts | 331° |
| 2026-05-06 18:20 | 40.59019 | -3.60594 | 4760 ft | 291 kts | 319° |
| 2026-05-06 18:20 | 40.60342 | -3.62455 | 5361 ft | 273 kts | 311° |
| 2026-05-06 18:21 | 40.61547 | -3.64377 | 5997 ft | 274 kts | 309° |
| 2026-05-06 18:21 | 40.62600 | -3.66435 | 6597 ft | 271 kts | 297° |
| 2026-05-06 18:21 | 40.63221 | -3.68755 | 7248 ft | 269 kts | 285° |
| 2026-05-06 18:21 | 40.63572 | -3.71196 | 7885 ft | 268 kts | 278° |
| 2026-05-06 18:22 | 40.63748 | -3.73609 | 8505 ft | 266 kts | 274° |
| 2026-05-06 18:22 | 40.63828 | -3.76055 | 9134 ft | 267 kts | 271° |
| 2026-05-06 18:22 | 40.63851 | -3.78518 | 9763 ft | 268 kts | 270° |
| 2026-05-06 18:22 | 40.63829 | -3.79915 | 10111 ft | 269 kts | 268° |
| 2026-05-06 18:23 | 40.63636 | -3.81518 | 10532 ft | 270 kts | 261° |
| 2026-05-06 18:23 | 40.63425 | -3.83995 | 11159 ft | 277 kts | 266° |
| 2026-05-06 18:23 | 40.63384 | -3.86606 | 11798 ft | 289 kts | 269° |
| 2026-05-06 18:23 | 40.63335 | -3.89297 | 12432 ft | 293 kts | 268° |
| 2026-05-06 18:24 | 40.63271 | -3.91972 | 13055 ft | 297 kts | 268° |
| 2026-05-06 18:24 | 40.63198 | -3.94729 | 13688 ft | 302 kts | 268° |
| 2026-05-06 18:24 | 40.63124 | -3.97490 | 14313 ft | 305 kts | 268° |
| 2026-05-06 18:24 | 40.63046 | -4.00319 | 14946 ft | 308 kts | 268° |
| 2026-05-06 18:25 | 40.62967 | -4.03132 | 15569 ft | 311 kts | 268° |
| 2026-05-06 18:25 | 40.62887 | -4.06015 | 16201 ft | 314 kts | 268° |
| 2026-05-06 18:25 | 40.62806 | -4.08889 | 16826 ft | 317 kts | 268° |
| 2026-05-06 18:25 | 40.62724 | -4.11796 | 17451 ft | 320 kts | 268° |
| 2026-05-06 18:26 | 40.62639 | -4.14772 | 18085 ft | 323 kts | 268° |
| 2026-05-06 18:26 | 40.62555 | -4.17720 | 18708 ft | 326 kts | 268° |
| 2026-05-06 18:26 | 40.62469 | -4.20740 | 19339 ft | 329 kts | 268° |
| 2026-05-06 18:26 | 40.62382 | -4.23755 | 19964 ft | 332 kts | 268° |
| 2026-05-06 18:27 | 40.62293 | -4.26836 | 20596 ft | 336 kts | 268° |
| 2026-05-06 18:27 | 40.62203 | -4.29925 | 21224 ft | 339 kts | 268° |
| 2026-05-06 18:27 | 40.62113 | -4.33018 | 21847 ft | 342 kts | 268° |
| 2026-05-06 18:27 | 40.62021 | -4.36178 | 22477 ft | 346 kts | 268° |
| 2026-05-06 18:28 | 40.61927 | -4.39375 | 23095 ft | 350 kts | 268° |
| 2026-05-06 18:28 | 40.61832 | -4.42583 | 23614 ft | 360 kts | 268° |
| 2026-05-06 18:28 | 40.61733 | -4.45936 | 24125 ft | 373 kts | 268° |
| 2026-05-06 18:28 | 40.61631 | -4.49407 | 24634 ft | 380 kts | 268° |
| 2026-05-06 18:29 | 40.61527 | -4.52906 | 25139 ft | 383 kts | 268° |
| 2026-05-06 18:29 | 40.61422 | -4.56409 | 25638 ft | 388 kts | 268° |
| 2026-05-06 18:29 | 40.61314 | -4.60005 | 26144 ft | 393 kts | 268° |
| 2026-05-06 18:29 | 40.61206 | -4.63602 | 26645 ft | 396 kts | 268° |
| 2026-05-06 18:30 | 40.61095 | -4.67273 | 27151 ft | 400 kts | 268° |
| 2026-05-06 18:30 | 40.60984 | -4.70939 | 27652 ft | 403 kts | 268° |
| 2026-05-06 18:30 | 40.60871 | -4.74621 | 28151 ft | 407 kts | 268° |
| 2026-05-06 18:30 | 40.60756 | -4.78385 | 28656 ft | 410 kts | 268° |
| 2026-05-06 18:31 | 40.60639 | -4.82168 | 29160 ft | 414 kts | 268° |
| 2026-05-06 18:31 | 40.60522 | -4.85950 | 29660 ft | 417 kts | 268° |
| 2026-05-06 18:31 | 40.60403 | -4.89770 | 30160 ft | 421 kts | 268° |
| 2026-05-06 18:31 | 40.60281 | -4.93661 | 30666 ft | 424 kts | 268° |
| 2026-05-06 18:32 | 40.60159 | -4.97549 | 31167 ft | 427 kts | 268° |
| 2026-05-06 18:32 | 40.60035 | -5.01464 | 31667 ft | 431 kts | 268° |
| 2026-05-06 18:32 | 40.59910 | -5.05405 | 32167 ft | 434 kts | 268° |
| 2026-05-06 18:32 | 40.59782 | -5.09436 | 32674 ft | 438 kts | 268° |
| 2026-05-06 18:33 | 40.59653 | -5.13436 | 33174 ft | 441 kts | 268° |
| 2026-05-06 18:33 | 40.59523 | -5.17491 | 33676 ft | 445 kts | 268° |
| 2026-05-06 18:33 | 40.59391 | -5.21566 | 34177 ft | 448 kts | 268° |
| 2026-05-06 18:33 | 40.59257 | -5.25690 | 34679 ft | 452 kts | 268° |
| 2026-05-06 18:34 | 40.59121 | -5.29829 | 34923 ft | 461 kts | 268° |
| 2026-05-06 18:34 | 40.58980 | -5.34129 | 34990 ft | 468 kts | 268° |
| 2026-05-06 18:34 | 40.58696 | -5.42700 | 35001 ft | 469 kts | 268° |
| 2026-05-06 18:35 | 40.58407 | -5.51349 | 35001 ft | 474 kts | 268° |
| 2026-05-06 18:35 | 40.58115 | -5.59964 | 35000 ft | 475 kts | 268° |
| 2026-05-06 18:36 | 40.57816 | -5.68689 | 35000 ft | 476 kts | 268° |
| 2026-05-06 18:36 | 40.57516 | -5.77375 | 35000 ft | 476 kts | 267° |
| 2026-05-06 18:37 | 40.57262 | -5.84626 | 35000 ft | 476 kts | 267° |
| 2026-05-06 18:37 | 40.56903 | -5.94795 | 35000 ft | 476 kts | 267° |
| 2026-05-06 18:38 | 40.56592 | -6.03484 | 35000 ft | 476 kts | 267° |
| 2026-05-06 18:38 | 40.56275 | -6.12221 | 35000 ft | 476 kts | 267° |
| 2026-05-06 18:39 | 40.55957 | -6.20925 | 35000 ft | 476 kts | 267° |
| 2026-05-06 18:40 | 40.55604 | -6.34007 | 35000 ft | 476 kts | 269° |
| 2026-05-06 18:40 | 40.55545 | -6.42716 | 35000 ft | 476 kts | 269° |
| 2026-05-06 18:41 | 40.55400 | -6.51439 | 35000 ft | 476 kts | 268° |
| 2026-05-06 18:41 | 40.55114 | -6.60146 | 35000 ft | 476 kts | 267° |
| 2026-05-06 18:42 | 40.54693 | -6.68875 | 35000 ft | 476 kts | 266° |
| 2026-05-06 18:42 | 40.54171 | -6.77516 | 35000 ft | 476 kts | 265° |
| 2026-05-06 18:43 | 40.53566 | -6.86210 | 35000 ft | 476 kts | 265° |
| 2026-05-06 18:43 | 40.52908 | -6.94877 | 35000 ft | 476 kts | 264° |
| 2026-05-06 18:44 | 40.52208 | -7.03578 | 35000 ft | 476 kts | 264° |
| 2026-05-06 18:44 | 40.51487 | -7.12205 | 35000 ft | 476 kts | 264° |
| 2026-05-06 18:45 | 40.50743 | -7.20883 | 35000 ft | 476 kts | 264° |
| 2026-05-06 18:45 | 40.49984 | -7.29565 | 35000 ft | 476 kts | 264° |
| 2026-05-06 18:46 | 40.49351 | -7.36713 | 35000 ft | 476 kts | 263° |
| 2026-05-06 18:46 | 40.48573 | -7.45402 | 35000 ft | 476 kts | 263° |
| 2026-05-06 18:47 | 40.47793 | -7.54027 | 35000 ft | 476 kts | 263° |
| 2026-05-06 18:47 | 40.47001 | -7.62695 | 35000 ft | 476 kts | 263° |
| 2026-05-06 18:48 | 40.46209 | -7.71300 | 35000 ft | 476 kts | 263° |
| 2026-05-06 18:48 | 40.45406 | -7.79937 | 35000 ft | 476 kts | 263° |
| 2026-05-06 18:49 | 40.44597 | -7.88566 | 35000 ft | 476 kts | 263° |
| 2026-05-06 18:49 | 40.43779 | -7.97220 | 35000 ft | 476 kts | 263° |
| 2026-05-06 18:50 | 40.43079 | -8.05882 | 35000 ft | 476 kts | 265° |
| 2026-05-06 18:50 | 40.42681 | -8.14506 | 35000 ft | 476 kts | 267° |
| 2026-05-06 18:51 | 40.42408 | -8.23191 | 35000 ft | 476 kts | 268° |
| 2026-05-06 18:51 | 40.42175 | -8.31895 | 35000 ft | 476 kts | 268° |
| 2026-05-06 18:52 | 40.41950 | -8.40621 | 35000 ft | 476 kts | 268° |
| 2026-05-06 18:52 | 40.41720 | -8.49280 | 35000 ft | 476 kts | 268° |
| 2026-05-06 18:53 | 40.41478 | -8.58006 | 35000 ft | 476 kts | 268° |
| 2026-05-06 18:53 | 40.41226 | -8.66700 | 35000 ft | 476 kts | 268° |
| 2026-05-06 18:54 | 40.40965 | -8.75366 | 35000 ft | 476 kts | 268° |
| 2026-05-06 18:54 | 40.40694 | -8.84057 | 35000 ft | 476 kts | 268° |
| 2026-05-06 18:55 | 40.40413 | -8.92770 | 35000 ft | 476 kts | 268° |
| 2026-05-06 18:55 | 40.40126 | -9.01411 | 35000 ft | 476 kts | 268° |
| 2026-05-06 18:56 | 40.39829 | -9.10149 | 35000 ft | 476 kts | 268° |
| 2026-05-06 18:56 | 40.39526 | -9.18826 | 35000 ft | 476 kts | 267° |
| 2026-05-06 18:57 | 40.39216 | -9.27504 | 35000 ft | 476 kts | 267° |
| 2026-05-06 18:57 | 40.38898 | -9.36198 | 35000 ft | 476 kts | 267° |
| 2026-05-06 18:58 | 40.38575 | -9.44852 | 35000 ft | 476 kts | 267° |
| 2026-05-06 18:58 | 40.38243 | -9.53587 | 35000 ft | 476 kts | 267° |
| 2026-05-06 18:59 | 40.37907 | -9.62236 | 35000 ft | 476 kts | 267° |
| 2026-05-06 18:59 | 40.37561 | -9.70969 | 35000 ft | 476 kts | 267° |
| 2026-05-06 19:00 | 40.37212 | -9.79619 | 35000 ft | 476 kts | 267° |
| 2026-05-06 19:00 | 40.36854 | -9.88320 | 35000 ft | 476 kts | 267° |
| 2026-05-06 19:01 | 40.36492 | -9.96959 | 35000 ft | 476 kts | 267° |
| 2026-05-06 19:01 | 40.36121 | -10.05657 | 35000 ft | 476 kts | 267° |
| 2026-05-06 19:02 | 40.35745 | -10.14340 | 35000 ft | 476 kts | 267° |
| 2026-05-06 19:02 | 40.35362 | -10.23011 | 35000 ft | 476 kts | 266° |
| 2026-05-06 19:03 | 40.34972 | -10.31688 | 35000 ft | 476 kts | 266° |
| 2026-05-06 19:03 | 40.34577 | -10.40335 | 35000 ft | 476 kts | 266° |
| 2026-05-06 19:04 | 40.34174 | -10.49038 | 35000 ft | 476 kts | 266° |
| 2026-05-06 19:04 | 40.33765 | -10.57703 | 35000 ft | 476 kts | 266° |
| 2026-05-06 19:05 | 40.33349 | -10.66390 | 35000 ft | 476 kts | 266° |
| 2026-05-06 19:05 | 40.32929 | -10.75025 | 35000 ft | 476 kts | 266° |
| 2026-05-06 19:06 | 40.32498 | -10.83741 | 35000 ft | 476 kts | 266° |
| 2026-05-06 19:06 | 40.32065 | -10.92383 | 35000 ft | 476 kts | 266° |
| 2026-05-06 19:07 | 40.31623 | -11.01060 | 35000 ft | 476 kts | 266° |
| 2026-05-06 19:07 | 40.31175 | -11.09722 | 35000 ft | 476 kts | 266° |
| 2026-05-06 19:08 | 40.30722 | -11.18367 | 35000 ft | 476 kts | 266° |
| 2026-05-06 19:08 | 40.30260 | -11.27049 | 35000 ft | 476 kts | 266° |
| 2026-05-06 19:09 | 40.29793 | -11.35724 | 35000 ft | 476 kts | 266° |
| 2026-05-06 19:09 | 40.29319 | -11.44379 | 35000 ft | 476 kts | 266° |
| 2026-05-06 19:10 | 40.28839 | -11.53040 | 35000 ft | 476 kts | 266° |
| 2026-05-06 19:10 | 40.28352 | -11.61703 | 35000 ft | 476 kts | 266° |
| 2026-05-06 19:11 | 40.27859 | -11.70362 | 35000 ft | 476 kts | 266° |
| 2026-05-06 19:11 | 40.27359 | -11.79037 | 35000 ft | 476 kts | 266° |
| 2026-05-06 19:12 | 40.26852 | -11.87709 | 35000 ft | 476 kts | 266° |
| 2026-05-06 19:12 | 40.26426 | -11.94909 | 35000 ft | 476 kts | 265° |
| 2026-05-06 19:13 | 40.25907 | -12.03581 | 35000 ft | 476 kts | 265° |
| 2026-05-06 19:13 | 40.25383 | -12.12225 | 35000 ft | 476 kts | 265° |
| 2026-05-06 19:14 | 40.24854 | -12.20861 | 35000 ft | 476 kts | 265° |
| 2026-05-06 19:14 | 40.24315 | -12.29529 | 35000 ft | 476 kts | 265° |
| 2026-05-06 19:15 | 40.23771 | -12.38192 | 35000 ft | 476 kts | 265° |
| 2026-05-06 19:15 | 40.23222 | -12.46826 | 35000 ft | 476 kts | 265° |
| 2026-05-06 19:16 | 40.22667 | -12.55449 | 35000 ft | 476 kts | 265° |
| 2026-05-06 19:16 | 40.22104 | -12.64083 | 35000 ft | 476 kts | 265° |
| 2026-05-06 19:17 | 40.21535 | -12.72729 | 35000 ft | 476 kts | 265° |
| 2026-05-06 19:17 | 40.20957 | -12.81397 | 35000 ft | 476 kts | 265° |
| 2026-05-06 19:18 | 40.20377 | -12.90007 | 35000 ft | 476 kts | 265° |
| 2026-05-06 19:18 | 40.19788 | -12.98654 | 35000 ft | 476 kts | 265° |
| 2026-05-06 19:19 | 40.19192 | -13.07314 | 35000 ft | 476 kts | 265° |
| 2026-05-06 19:19 | 40.18593 | -13.15912 | 35000 ft | 476 kts | 265° |
| 2026-05-06 19:20 | 40.17984 | -13.24558 | 35000 ft | 476 kts | 265° |
| 2026-05-06 19:20 | 40.17372 | -13.33160 | 35000 ft | 476 kts | 265° |
| 2026-05-06 19:21 | 40.16747 | -13.41846 | 35000 ft | 476 kts | 265° |
| 2026-05-06 19:21 | 40.16122 | -13.50457 | 35000 ft | 476 kts | 265° |
| 2026-05-06 19:22 | 40.15489 | -13.59069 | 35000 ft | 476 kts | 265° |
| 2026-05-06 19:22 | 40.14851 | -13.67676 | 35000 ft | 476 kts | 264° |
| 2026-05-06 19:23 | 40.14202 | -13.76328 | 35000 ft | 476 kts | 264° |
| 2026-05-06 19:23 | 40.13552 | -13.84918 | 35000 ft | 476 kts | 264° |
| 2026-05-06 19:24 | 40.12893 | -13.93542 | 35000 ft | 476 kts | 264° |
| 2026-05-06 19:24 | 40.12228 | -14.02161 | 35000 ft | 476 kts | 264° |
| 2026-05-06 19:25 | 40.11553 | -14.10817 | 35000 ft | 476 kts | 264° |
| 2026-05-06 19:25 | 40.10876 | -14.19411 | 35000 ft | 476 kts | 264° |
| 2026-05-06 19:26 | 40.10192 | -14.28026 | 35000 ft | 476 kts | 264° |
| 2026-05-06 19:26 | 40.09500 | -14.36641 | 35000 ft | 476 kts | 264° |
| 2026-05-06 19:27 | 40.08803 | -14.45246 | 35000 ft | 476 kts | 264° |
| 2026-05-06 19:27 | 40.08101 | -14.53835 | 35000 ft | 476 kts | 264° |
| 2026-05-06 19:28 | 40.07391 | -14.62443 | 35000 ft | 476 kts | 264° |
| 2026-05-06 19:28 | 40.06679 | -14.70998 | 35000 ft | 476 kts | 264° |
| 2026-05-06 19:29 | 40.05955 | -14.79613 | 35000 ft | 476 kts | 264° |
| 2026-05-06 19:29 | 40.05225 | -14.88225 | 35000 ft | 476 kts | 264° |
| 2026-05-06 19:30 | 40.04488 | -14.96846 | 35000 ft | 476 kts | 264° |
| 2026-05-06 19:30 | 40.03754 | -15.05354 | 35000 ft | 476 kts | 264° |
| 2026-05-06 19:31 | 40.03000 | -15.14011 | 35000 ft | 476 kts | 264° |
| 2026-05-06 19:31 | 40.01866 | -15.26902 | 35000 ft | 476 kts | 264° |
| 2026-05-06 19:32 | 40.01099 | -15.35522 | 35000 ft | 476 kts | 264° |
| 2026-05-06 19:32 | 40.00331 | -15.44093 | 35000 ft | 476 kts | 263° |
| 2026-05-06 19:33 | 39.99555 | -15.52672 | 35000 ft | 476 kts | 263° |
| 2026-05-06 19:33 | 39.98769 | -15.61286 | 35000 ft | 476 kts | 263° |
| 2026-05-06 19:34 | 39.97980 | -15.69862 | 35000 ft | 476 kts | 263° |
| 2026-05-06 19:34 | 39.97182 | -15.78469 | 35000 ft | 476 kts | 263° |
| 2026-05-06 19:35 | 39.96383 | -15.87017 | 35000 ft | 476 kts | 263° |
| 2026-05-06 19:35 | 39.95574 | -15.95593 | 35000 ft | 476 kts | 263° |
| 2026-05-06 19:36 | 39.94756 | -16.04203 | 35000 ft | 476 kts | 263° |
| 2026-05-06 19:36 | 39.93941 | -16.12720 | 35000 ft | 476 kts | 263° |
| 2026-05-06 19:37 | 39.93107 | -16.21358 | 35000 ft | 476 kts | 263° |
| 2026-05-06 19:37 | 39.92415 | -16.28476 | 35000 ft | 476 kts | 263° |
| 2026-05-06 19:38 | 39.91439 | -16.38433 | 35000 ft | 476 kts | 263° |
| 2026-05-06 19:38 | 39.90592 | -16.47009 | 35000 ft | 476 kts | 263° |
| 2026-05-06 19:39 | 39.89737 | -16.55597 | 35000 ft | 476 kts | 263° |
| 2026-05-06 19:39 | 39.88878 | -16.64160 | 35000 ft | 476 kts | 263° |
| 2026-05-06 19:40 | 39.88012 | -16.72724 | 35000 ft | 476 kts | 263° |
| 2026-05-06 19:40 | 39.87287 | -16.79839 | 35000 ft | 476 kts | 263° |
| 2026-05-06 19:41 | 39.86268 | -16.89781 | 35000 ft | 476 kts | 263° |
| 2026-05-06 19:41 | 39.85530 | -16.96925 | 35000 ft | 476 kts | 263° |
| 2026-05-06 19:42 | 39.84640 | -17.05479 | 35000 ft | 477 kts | 263° |
| 2026-05-06 19:42 | 39.83743 | -17.14039 | 35000 ft | 477 kts | 262° |
| 2026-05-06 19:43 | 39.82841 | -17.22587 | 35000 ft | 477 kts | 262° |
| 2026-05-06 19:43 | 39.81932 | -17.31141 | 35000 ft | 476 kts | 262° |
| 2026-05-06 19:44 | 39.81021 | -17.39648 | 35000 ft | 476 kts | 262° |
| 2026-05-06 19:44 | 39.80103 | -17.48168 | 35000 ft | 476 kts | 262° |
| 2026-05-06 19:45 | 39.79175 | -17.56710 | 35000 ft | 476 kts | 262° |
| 2026-05-06 19:45 | 39.78243 | -17.65241 | 35000 ft | 476 kts | 262° |
| 2026-05-06 19:46 | 39.77298 | -17.73820 | 35000 ft | 476 kts | 262° |
| 2026-05-06 19:46 | 39.76356 | -17.82314 | 35000 ft | 476 kts | 262° |
| 2026-05-06 19:47 | 39.75404 | -17.90844 | 35000 ft | 476 kts | 262° |
| 2026-05-06 19:47 | 39.74442 | -17.99402 | 35000 ft | 476 kts | 262° |
| 2026-05-06 19:48 | 39.73484 | -18.07866 | 35000 ft | 476 kts | 262° |
| 2026-05-06 19:48 | 39.72508 | -18.16434 | 35000 ft | 476 kts | 262° |
| 2026-05-06 19:49 | 39.71531 | -18.24958 | 35000 ft | 476 kts | 262° |
| 2026-05-06 19:49 | 39.70548 | -18.33469 | 35000 ft | 476 kts | 262° |
| 2026-05-06 19:50 | 39.69561 | -18.41967 | 35000 ft | 476 kts | 262° |
| 2026-05-06 19:50 | 39.68567 | -18.50461 | 35000 ft | 476 kts | 262° |
| 2026-05-06 19:51 | 39.67562 | -18.58999 | 35000 ft | 476 kts | 262° |
| 2026-05-06 19:51 | 39.66559 | -18.67464 | 35000 ft | 476 kts | 262° |
| 2026-05-06 19:52 | 39.65542 | -18.75989 | 35000 ft | 476 kts | 262° |
| 2026-05-06 19:52 | 39.64519 | -18.84508 | 35000 ft | 476 kts | 262° |
| 2026-05-06 19:53 | 39.63498 | -18.92960 | 35000 ft | 477 kts | 261° |
| 2026-05-06 19:53 | 39.62461 | -19.01491 | 35000 ft | 477 kts | 261° |
| 2026-05-06 19:54 | 39.61423 | -19.09981 | 35000 ft | 477 kts | 261° |
| 2026-05-06 19:54 | 39.60379 | -19.18455 | 35000 ft | 477 kts | 261° |
| 2026-05-06 19:55 | 39.59326 | -19.26961 | 35000 ft | 477 kts | 261° |
| 2026-05-06 19:55 | 39.58270 | -19.35427 | 35000 ft | 477 kts | 261° |
| 2026-05-06 19:56 | 39.57206 | -19.43913 | 35000 ft | 477 kts | 261° |
| 2026-05-06 19:56 | 39.56137 | -19.52386 | 35000 ft | 477 kts | 261° |
| 2026-05-06 19:57 | 39.55059 | -19.60876 | 35000 ft | 477 kts | 261° |
| 2026-05-06 19:57 | 39.53974 | -19.69371 | 35000 ft | 477 kts | 261° |
| 2026-05-06 19:58 | 39.52889 | -19.77807 | 35000 ft | 477 kts | 261° |
| 2026-05-06 19:58 | 39.51791 | -19.86298 | 35000 ft | 477 kts | 261° |
| 2026-05-06 19:59 | 39.50689 | -19.94755 | 35000 ft | 477 kts | 261° |
| 2026-05-06 19:59 | 39.48977 | -20.03040 | 35001 ft | 478 kts | 252° |
| 2026-05-06 20:00 | 39.46593 | -20.11092 | 35001 ft | 478 kts | 249° |
| 2026-05-06 20:00 | 39.43947 | -20.19032 | 35000 ft | 478 kts | 247° |
| 2026-05-06 20:01 | 39.41218 | -20.26899 | 35000 ft | 478 kts | 247° |
| 2026-05-06 20:01 | 39.38481 | -20.34700 | 35000 ft | 478 kts | 246° |
| 2026-05-06 20:02 | 39.35725 | -20.42547 | 35000 ft | 478 kts | 247° |
| 2026-05-06 20:02 | 39.32978 | -20.50386 | 35000 ft | 478 kts | 247° |
| 2026-05-06 20:03 | 39.30244 | -20.58208 | 35000 ft | 478 kts | 247° |
| 2026-05-06 20:03 | 39.27514 | -20.66026 | 35000 ft | 478 kts | 247° |
| 2026-05-06 20:04 | 39.24777 | -20.73871 | 35000 ft | 478 kts | 247° |
| 2026-05-06 20:04 | 39.22043 | -20.81702 | 35000 ft | 478 kts | 247° |
| 2026-05-06 20:05 | 39.19305 | -20.89538 | 35000 ft | 478 kts | 247° |
| 2026-05-06 20:05 | 39.16571 | -20.97353 | 35000 ft | 478 kts | 247° |
| 2026-05-06 20:06 | 39.13844 | -21.05130 | 35000 ft | 478 kts | 247° |
| 2026-05-06 20:06 | 39.11094 | -21.12960 | 35000 ft | 478 kts | 247° |
| 2026-05-06 20:07 | 39.08350 | -21.20753 | 35000 ft | 478 kts | 246° |
| 2026-05-06 20:07 | 39.05586 | -21.28583 | 35000 ft | 478 kts | 246° |
| 2026-05-06 20:08 | 39.02841 | -21.36343 | 35000 ft | 478 kts | 246° |
| 2026-05-06 20:08 | 39.00073 | -21.44145 | 35000 ft | 478 kts | 246° |
| 2026-05-06 20:09 | 38.97294 | -21.51961 | 35000 ft | 478 kts | 246° |
| 2026-05-06 20:09 | 38.94535 | -21.59698 | 35000 ft | 478 kts | 246° |
| 2026-05-06 20:10 | 38.91752 | -21.67483 | 35000 ft | 478 kts | 246° |
| 2026-05-06 20:10 | 38.88973 | -21.75237 | 35000 ft | 478 kts | 246° |
| 2026-05-06 20:11 | 38.86192 | -21.82978 | 35000 ft | 478 kts | 246° |
| 2026-05-06 20:11 | 38.83402 | -21.90722 | 35000 ft | 478 kts | 246° |
| 2026-05-06 20:12 | 38.81055 | -21.97221 | 35000 ft | 478 kts | 246° |
| 2026-05-06 20:12 | 38.78258 | -22.04947 | 35000 ft | 478 kts | 246° |
| 2026-05-06 20:13 | 38.74989 | -22.13953 | 35000 ft | 478 kts | 246° |
| 2026-05-06 20:13 | 38.72633 | -22.20425 | 35000 ft | 478 kts | 246° |
| 2026-05-06 20:14 | 38.69825 | -22.28122 | 35000 ft | 478 kts | 246° |
| 2026-05-06 20:14 | 38.67008 | -22.35825 | 35000 ft | 478 kts | 246° |
| 2026-05-06 20:15 | 38.64162 | -22.43584 | 35000 ft | 478 kts | 246° |
| 2026-05-06 20:15 | 38.61335 | -22.51273 | 35000 ft | 478 kts | 246° |
| 2026-05-06 20:16 | 38.58497 | -22.58974 | 35000 ft | 478 kts | 246° |
| 2026-05-06 20:16 | 38.55652 | -22.66671 | 35000 ft | 478 kts | 246° |
| 2026-05-06 20:17 | 38.52800 | -22.74370 | 35000 ft | 478 kts | 246° |
| 2026-05-06 20:17 | 38.49951 | -22.82041 | 35000 ft | 478 kts | 246° |
| 2026-05-06 20:18 | 38.47092 | -22.89717 | 35000 ft | 478 kts | 246° |
| 2026-05-06 20:18 | 38.44231 | -22.97381 | 35000 ft | 478 kts | 246° |
| 2026-05-06 20:19 | 38.41361 | -23.05047 | 35000 ft | 478 kts | 245° |
| 2026-05-06 20:19 | 38.38494 | -23.12689 | 35000 ft | 478 kts | 245° |
| 2026-05-06 20:20 | 38.35615 | -23.20340 | 35000 ft | 478 kts | 245° |
| 2026-05-06 20:20 | 38.32739 | -23.27967 | 35000 ft | 478 kts | 245° |
| 2026-05-06 20:21 | 38.29839 | -23.35637 | 35000 ft | 478 kts | 245° |
| 2026-05-06 20:21 | 38.26954 | -23.43249 | 35000 ft | 478 kts | 245° |
| 2026-05-06 20:22 | 38.24057 | -23.50873 | 35000 ft | 478 kts | 245° |
| 2026-05-06 20:22 | 38.21149 | -23.58506 | 35000 ft | 478 kts | 245° |
| 2026-05-06 20:23 | 38.18250 | -23.66096 | 35000 ft | 478 kts | 245° |
| 2026-05-06 20:23 | 38.15341 | -23.73696 | 35000 ft | 478 kts | 245° |
| 2026-05-06 20:24 | 38.12416 | -23.81317 | 35000 ft | 478 kts | 245° |
| 2026-05-06 20:24 | 38.09503 | -23.88888 | 35000 ft | 478 kts | 245° |
| 2026-05-06 20:25 | 38.06570 | -23.96494 | 35000 ft | 478 kts | 245° |
| 2026-05-06 20:25 | 38.03641 | -24.04070 | 35000 ft | 478 kts | 245° |
| 2026-05-06 20:26 | 38.00704 | -24.11646 | 35000 ft | 478 kts | 245° |
| 2026-05-06 20:26 | 37.97748 | -24.19254 | 35000 ft | 479 kts | 245° |
| 2026-05-06 20:27 | 37.94806 | -24.26806 | 35000 ft | 479 kts | 245° |
| 2026-05-06 20:27 | 37.91866 | -24.34337 | 35000 ft | 479 kts | 245° |
| 2026-05-06 20:28 | 37.88901 | -24.41912 | 35000 ft | 479 kts | 245° |
| 2026-05-06 20:28 | 37.85935 | -24.49471 | 35000 ft | 479 kts | 245° |
| 2026-05-06 20:29 | 37.82976 | -24.56994 | 35000 ft | 479 kts | 245° |
| 2026-05-06 20:29 | 37.80007 | -24.64525 | 35000 ft | 479 kts | 245° |
| 2026-05-06 20:30 | 37.75526 | -24.75855 | 35000 ft | 479 kts | 245° |
| 2026-05-06 20:31 | 37.72563 | -24.83326 | 35000 ft | 479 kts | 244° |
| 2026-05-06 20:31 | 37.69572 | -24.90847 | 35000 ft | 479 kts | 244° |
| 2026-05-06 20:32 | 37.66564 | -24.98396 | 35000 ft | 479 kts | 244° |
| 2026-05-06 20:32 | 37.63577 | -25.05871 | 35000 ft | 479 kts | 244° |
| 2026-05-06 20:33 | 37.60575 | -25.13367 | 35000 ft | 479 kts | 244° |
| 2026-05-06 20:33 | 37.57566 | -25.20862 | 35000 ft | 479 kts | 244° |
| 2026-05-06 20:34 | 37.54557 | -25.28340 | 35000 ft | 479 kts | 244° |
| 2026-05-06 20:34 | 37.51525 | -25.35857 | 35000 ft | 479 kts | 244° |
| 2026-05-06 20:35 | 37.48510 | -25.43315 | 35000 ft | 479 kts | 244° |
| 2026-05-06 20:35 | 37.45493 | -25.50760 | 35000 ft | 479 kts | 244° |
| 2026-05-06 20:36 | 37.42456 | -25.58236 | 35000 ft | 479 kts | 244° |
| 2026-05-06 20:36 | 37.39419 | -25.65693 | 35000 ft | 479 kts | 244° |
| 2026-05-06 20:37 | 37.36379 | -25.73141 | 35000 ft | 479 kts | 244° |
| 2026-05-06 20:37 | 37.33323 | -25.80613 | 35000 ft | 479 kts | 244° |
| 2026-05-06 20:38 | 37.30283 | -25.88026 | 35000 ft | 479 kts | 244° |
| 2026-05-06 20:38 | 37.27227 | -25.95462 | 35000 ft | 479 kts | 244° |
| 2026-05-06 20:39 | 37.24159 | -26.02907 | 35000 ft | 479 kts | 244° |
| 2026-05-06 20:39 | 37.21094 | -26.10330 | 35000 ft | 479 kts | 244° |
| 2026-05-06 20:40 | 37.18014 | -26.17772 | 35000 ft | 479 kts | 244° |
| 2026-05-06 20:40 | 37.14951 | -26.25156 | 35000 ft | 479 kts | 244° |
| 2026-05-06 20:41 | 37.11878 | -26.32545 | 35000 ft | 479 kts | 244° |
| 2026-05-06 20:41 | 37.08793 | -26.39949 | 35000 ft | 479 kts | 244° |
| 2026-05-06 20:42 | 37.05697 | -26.47360 | 35000 ft | 479 kts | 244° |
| 2026-05-06 20:42 | 37.02612 | -26.54726 | 35000 ft | 479 kts | 244° |
| 2026-05-06 20:43 | 36.99516 | -26.62105 | 35000 ft | 479 kts | 243° |
| 2026-05-06 20:43 | 36.96415 | -26.69476 | 35000 ft | 479 kts | 243° |
| 2026-05-06 20:44 | 36.93316 | -26.76827 | 35000 ft | 479 kts | 243° |
| 2026-05-06 20:44 | 36.90718 | -26.82977 | 35000 ft | 479 kts | 243° |
| 2026-05-06 20:45 | 36.87089 | -26.91547 | 35000 ft | 479 kts | 243° |
| 2026-05-06 20:45 | 36.84470 | -26.97720 | 35000 ft | 479 kts | 243° |
| 2026-05-06 20:46 | 36.81344 | -27.05069 | 35000 ft | 479 kts | 243° |
| 2026-05-06 20:46 | 36.78220 | -27.12399 | 35000 ft | 479 kts | 243° |
| 2026-05-06 20:47 | 36.75088 | -27.19732 | 35000 ft | 479 kts | 243° |
| 2026-05-06 20:47 | 36.71942 | -27.27080 | 35000 ft | 479 kts | 243° |
| 2026-05-06 20:48 | 36.68801 | -27.34397 | 35000 ft | 479 kts | 243° |
| 2026-05-06 20:48 | 36.65651 | -27.41723 | 35000 ft | 479 kts | 243° |
| 2026-05-06 20:49 | 36.62506 | -27.49018 | 35000 ft | 479 kts | 243° |
| 2026-05-06 20:49 | 36.59342 | -27.56343 | 35000 ft | 479 kts | 243° |
| 2026-05-06 20:50 | 36.56185 | -27.63632 | 35000 ft | 479 kts | 243° |
| 2026-05-06 20:50 | 36.53037 | -27.70889 | 35000 ft | 479 kts | 243° |
| 2026-05-06 20:51 | 36.49850 | -27.78216 | 35000 ft | 479 kts | 243° |
| 2026-05-06 20:51 | 36.46676 | -27.85499 | 35000 ft | 479 kts | 243° |
| 2026-05-06 20:52 | 36.43496 | -27.92779 | 35000 ft | 479 kts | 243° |
| 2026-05-06 20:52 | 36.40327 | -28.00016 | 35000 ft | 479 kts | 243° |
| 2026-05-06 20:53 | 36.37127 | -28.07310 | 35000 ft | 479 kts | 243° |
| 2026-05-06 20:53 | 36.33951 | -28.14533 | 35000 ft | 479 kts | 243° |
| 2026-05-06 20:54 | 36.30755 | -28.21785 | 35000 ft | 479 kts | 243° |
| 2026-05-06 20:54 | 36.27542 | -28.29059 | 35000 ft | 479 kts | 243° |
| 2026-05-06 20:55 | 36.24351 | -28.36268 | 35000 ft | 479 kts | 243° |
| 2026-05-06 20:55 | 36.21141 | -28.43506 | 35000 ft | 479 kts | 243° |
| 2026-05-06 20:56 | 36.17933 | -28.50720 | 35000 ft | 479 kts | 242° |
| 2026-05-06 20:56 | 36.14705 | -28.57966 | 35000 ft | 479 kts | 242° |
| 2026-05-06 20:57 | 36.11487 | -28.65174 | 35000 ft | 479 kts | 242° |
| 2026-05-06 20:57 | 36.08247 | -28.72414 | 35000 ft | 479 kts | 242° |
| 2026-05-06 20:58 | 36.05017 | -28.79618 | 35000 ft | 479 kts | 242° |
| 2026-05-06 20:58 | 36.01783 | -28.86813 | 35000 ft | 479 kts | 242° |
| 2026-05-06 20:59 | 35.98543 | -28.94008 | 35000 ft | 479 kts | 242° |
| 2026-05-06 20:59 | 35.95312 | -29.01168 | 35000 ft | 479 kts | 242° |
| 2026-05-06 21:00 | 35.92046 | -29.08387 | 35000 ft | 479 kts | 242° |
| 2026-05-06 21:00 | 35.88798 | -29.15553 | 35000 ft | 479 kts | 242° |
| 2026-05-06 21:01 | 35.85551 | -29.22703 | 35000 ft | 479 kts | 242° |
| 2026-05-06 21:01 | 35.82286 | -29.29875 | 35000 ft | 479 kts | 242° |
| 2026-05-06 21:02 | 35.79019 | -29.37037 | 35000 ft | 479 kts | 242° |
| 2026-05-06 21:02 | 35.75754 | -29.44179 | 35000 ft | 479 kts | 242° |
| 2026-05-06 21:03 | 35.72476 | -29.51335 | 35000 ft | 479 kts | 242° |
| 2026-05-06 21:03 | 35.69207 | -29.58458 | 35000 ft | 479 kts | 242° |
| 2026-05-06 21:04 | 35.65917 | -29.65609 | 35000 ft | 479 kts | 242° |
| 2026-05-06 21:04 | 35.62632 | -29.72735 | 35000 ft | 479 kts | 242° |
| 2026-05-06 21:05 | 35.59335 | -29.79872 | 35000 ft | 479 kts | 242° |
| 2026-05-06 21:05 | 35.56034 | -29.87003 | 35000 ft | 479 kts | 242° |
| 2026-05-06 21:06 | 35.52738 | -29.94109 | 35000 ft | 479 kts | 242° |
| 2026-05-06 21:06 | 35.49359 | -30.01152 | 35000 ft | 480 kts | 240° |
| 2026-05-06 21:07 | 35.45818 | -30.08124 | 35000 ft | 480 kts | 239° |
| 2026-05-06 21:07 | 35.42229 | -30.15020 | 35000 ft | 480 kts | 239° |
| 2026-05-06 21:08 | 35.38611 | -30.21903 | 35000 ft | 480 kts | 239° |
| 2026-05-06 21:08 | 35.34982 | -30.28779 | 35000 ft | 480 kts | 238° |
| 2026-05-06 21:09 | 35.31355 | -30.35639 | 35000 ft | 480 kts | 238° |
| 2026-05-06 21:09 | 35.27718 | -30.42509 | 35000 ft | 480 kts | 238° |
| 2026-05-06 21:10 | 35.24100 | -30.49333 | 35000 ft | 480 kts | 238° |
| 2026-05-06 21:10 | 35.20455 | -30.56201 | 35000 ft | 480 kts | 238° |
| 2026-05-06 21:11 | 35.16818 | -30.63046 | 35000 ft | 480 kts | 238° |
| 2026-05-06 21:11 | 35.13177 | -30.69885 | 35000 ft | 480 kts | 238° |
| 2026-05-06 21:12 | 35.09539 | -30.76708 | 35000 ft | 480 kts | 238° |
| 2026-05-06 21:12 | 35.05874 | -30.83570 | 35000 ft | 480 kts | 238° |
| 2026-05-06 21:13 | 35.02233 | -30.90375 | 35000 ft | 480 kts | 238° |
| 2026-05-06 21:13 | 34.98575 | -30.97201 | 35000 ft | 480 kts | 238° |
| 2026-05-06 21:14 | 34.94910 | -31.04025 | 35000 ft | 480 kts | 238° |
| 2026-05-06 21:14 | 34.91266 | -31.10797 | 35000 ft | 480 kts | 238° |
| 2026-05-06 21:15 | 34.87599 | -31.17600 | 35000 ft | 480 kts | 238° |
| 2026-05-06 21:15 | 34.83933 | -31.24389 | 35000 ft | 480 kts | 238° |
| 2026-05-06 21:16 | 34.80247 | -31.31200 | 35000 ft | 480 kts | 238° |
| 2026-05-06 21:16 | 34.77184 | -31.36851 | 35000 ft | 480 kts | 238° |
| 2026-05-06 21:17 | 34.73495 | -31.43646 | 35000 ft | 480 kts | 238° |
| 2026-05-06 21:17 | 34.69811 | -31.50417 | 35000 ft | 480 kts | 238° |
| 2026-05-06 21:18 | 34.66129 | -31.57171 | 35000 ft | 480 kts | 238° |
| 2026-05-06 21:18 | 34.62430 | -31.63945 | 35000 ft | 480 kts | 238° |
| 2026-05-06 21:19 | 34.58733 | -31.70702 | 35000 ft | 480 kts | 238° |
| 2026-05-06 21:19 | 34.55051 | -31.77419 | 35000 ft | 480 kts | 238° |
| 2026-05-06 21:20 | 34.51349 | -31.84161 | 35000 ft | 480 kts | 238° |
| 2026-05-06 21:20 | 34.47630 | -31.90919 | 35000 ft | 480 kts | 238° |
| 2026-05-06 21:21 | 34.43912 | -31.97662 | 35000 ft | 480 kts | 238° |
| 2026-05-06 21:21 | 34.40203 | -32.04378 | 35000 ft | 480 kts | 238° |
| 2026-05-06 21:22 | 34.36480 | -32.11106 | 35000 ft | 480 kts | 238° |
| 2026-05-06 21:22 | 34.32768 | -32.17801 | 35000 ft | 480 kts | 238° |
| 2026-05-06 21:23 | 34.29030 | -32.24531 | 35000 ft | 480 kts | 238° |
| 2026-05-06 21:23 | 34.25297 | -32.31239 | 35000 ft | 480 kts | 238° |
| 2026-05-06 21:24 | 34.21583 | -32.37901 | 35000 ft | 480 kts | 237° |
| 2026-05-06 21:24 | 34.17828 | -32.44624 | 35000 ft | 480 kts | 237° |
| 2026-05-06 21:25 | 34.14091 | -32.51301 | 35000 ft | 480 kts | 237° |
| 2026-05-06 21:25 | 34.10364 | -32.57950 | 35000 ft | 480 kts | 237° |
| 2026-05-06 21:26 | 34.06609 | -32.64635 | 35000 ft | 480 kts | 237° |
| 2026-05-06 21:26 | 34.02839 | -32.71334 | 35000 ft | 480 kts | 237° |
| 2026-05-06 21:27 | 33.99105 | -32.77958 | 35000 ft | 480 kts | 237° |
| 2026-05-06 21:27 | 33.95327 | -32.84648 | 35000 ft | 480 kts | 237° |
| 2026-05-06 21:28 | 33.91579 | -32.91273 | 35000 ft | 480 kts | 237° |
| 2026-05-06 21:28 | 33.87814 | -32.97913 | 35000 ft | 480 kts | 237° |
| 2026-05-06 21:29 | 33.84049 | -33.04543 | 35000 ft | 480 kts | 237° |
| 2026-05-06 21:29 | 33.80259 | -33.11205 | 35000 ft | 480 kts | 237° |
| 2026-05-06 21:30 | 33.76481 | -33.17833 | 35000 ft | 480 kts | 237° |
| 2026-05-06 21:30 | 33.72719 | -33.24422 | 35000 ft | 480 kts | 237° |
| 2026-05-06 21:31 | 33.68918 | -33.31066 | 35000 ft | 480 kts | 237° |
| 2026-05-06 21:31 | 33.65124 | -33.37687 | 35000 ft | 480 kts | 237° |
| 2026-05-06 21:32 | 33.61347 | -33.44266 | 35000 ft | 480 kts | 237° |
| 2026-05-06 21:32 | 33.55650 | -33.54166 | 35000 ft | 480 kts | 237° |
| 2026-05-06 21:33 | 33.51846 | -33.60762 | 35000 ft | 480 kts | 237° |
| 2026-05-06 21:33 | 33.48043 | -33.67344 | 35000 ft | 480 kts | 237° |
| 2026-05-06 21:34 | 33.44248 | -33.73902 | 35000 ft | 480 kts | 237° |
| 2026-05-06 21:34 | 33.40426 | -33.80494 | 35000 ft | 480 kts | 237° |
| 2026-05-06 21:35 | 33.36604 | -33.87073 | 35000 ft | 480 kts | 237° |
| 2026-05-06 21:35 | 33.32789 | -33.93630 | 35000 ft | 480 kts | 237° |
| 2026-05-06 21:36 | 33.28973 | -34.00176 | 35000 ft | 480 kts | 237° |
| 2026-05-06 21:36 | 33.25157 | -34.06710 | 35000 ft | 480 kts | 237° |
| 2026-05-06 21:37 | 33.21311 | -34.13285 | 35000 ft | 480 kts | 237° |
| 2026-05-06 21:37 | 33.17482 | -34.19818 | 35000 ft | 480 kts | 237° |
| 2026-05-06 21:38 | 33.13645 | -34.26354 | 35000 ft | 480 kts | 237° |
| 2026-05-06 21:38 | 33.09807 | -34.32880 | 35000 ft | 480 kts | 236° |
| 2026-05-06 21:39 | 33.05959 | -34.39412 | 35000 ft | 480 kts | 236° |
| 2026-05-06 21:39 | 33.02121 | -34.45914 | 35000 ft | 480 kts | 236° |
| 2026-05-06 21:40 | 32.98287 | -34.52400 | 35000 ft | 480 kts | 236° |
| 2026-05-06 21:40 | 32.94422 | -34.58927 | 35000 ft | 480 kts | 236° |
| 2026-05-06 21:41 | 32.90574 | -34.65411 | 35000 ft | 480 kts | 236° |
| 2026-05-06 21:41 | 32.86718 | -34.71900 | 35000 ft | 480 kts | 236° |
| 2026-05-06 21:42 | 32.82856 | -34.78387 | 35000 ft | 480 kts | 236° |
| 2026-05-06 21:42 | 32.78973 | -34.84897 | 35000 ft | 480 kts | 236° |
| 2026-05-06 21:43 | 32.75119 | -34.91348 | 35000 ft | 480 kts | 236° |
| 2026-05-06 21:43 | 32.71252 | -34.97810 | 35000 ft | 480 kts | 236° |
| 2026-05-06 21:44 | 32.67360 | -35.04303 | 35000 ft | 480 kts | 236° |
| 2026-05-06 21:44 | 32.63491 | -35.10746 | 35000 ft | 480 kts | 236° |
| 2026-05-06 21:45 | 32.59590 | -35.17231 | 35000 ft | 480 kts | 236° |
| 2026-05-06 21:45 | 32.55708 | -35.23672 | 35000 ft | 480 kts | 236° |
| 2026-05-06 21:46 | 32.52476 | -35.29028 | 35000 ft | 480 kts | 236° |
| 2026-05-06 21:46 | 32.47937 | -35.36536 | 35000 ft | 480 kts | 236° |
| 2026-05-06 21:47 | 32.44696 | -35.41885 | 34998 ft | 463 kts | 236° |
| 2026-05-06 21:47 | 32.42293 | -35.45836 | 34995 ft | 433 kts | 236° |
| 2026-05-06 21:47 | 32.41124 | -35.47754 | 34995 ft | 422 kts | 236° |
| 2026-05-06 21:48 | 32.39431 | -35.50534 | 34995 ft | 411 kts | 236° |
| 2026-05-06 21:48 | 32.37772 | -35.53259 | 34997 ft | 405 kts | 236° |
| 2026-05-06 21:48 | 32.34508 | -35.58623 | 34999 ft | 399 kts | 236° |
| 2026-05-06 21:49 | 32.31268 | -35.63948 | 35000 ft | 397 kts | 236° |
| 2026-05-06 21:49 | 32.28065 | -35.69206 | 35000 ft | 395 kts | 236° |
| 2026-05-06 21:50 | 32.24828 | -35.74511 | 35000 ft | 395 kts | 236° |
| 2026-05-06 21:50 | 32.21628 | -35.79748 | 35000 ft | 395 kts | 236° |
| 2026-05-06 21:51 | 32.18401 | -35.85019 | 35000 ft | 394 kts | 236° |
| 2026-05-06 21:51 | 32.15190 | -35.90258 | 35000 ft | 394 kts | 236° |
| 2026-05-06 21:52 | 32.11967 | -35.95507 | 35000 ft | 394 kts | 236° |
| 2026-05-06 21:52 | 32.08757 | -36.00727 | 35000 ft | 394 kts | 236° |
| 2026-05-06 21:53 | 32.05514 | -36.05992 | 35000 ft | 394 kts | 236° |
| 2026-05-06 21:53 | 32.02312 | -36.11184 | 35000 ft | 394 kts | 236° |
| 2026-05-06 21:54 | 31.99080 | -36.16418 | 35000 ft | 394 kts | 236° |
| 2026-05-06 21:54 | 31.95854 | -36.21635 | 35000 ft | 394 kts | 236° |
| 2026-05-06 21:55 | 31.92626 | -36.26847 | 35000 ft | 394 kts | 236° |
| 2026-05-06 21:55 | 31.89379 | -36.32083 | 35000 ft | 394 kts | 236° |
| 2026-05-06 21:56 | 31.86148 | -36.37286 | 35000 ft | 394 kts | 236° |
| 2026-05-06 21:56 | 31.82905 | -36.42501 | 35000 ft | 394 kts | 236° |
| 2026-05-06 21:57 | 31.79671 | -36.47696 | 35000 ft | 394 kts | 236° |
| 2026-05-06 21:57 | 31.76417 | -36.52914 | 35000 ft | 394 kts | 236° |
| 2026-05-06 21:58 | 31.73176 | -36.58105 | 35000 ft | 394 kts | 236° |
| 2026-05-06 21:58 | 31.69939 | -36.63283 | 35000 ft | 394 kts | 236° |
| 2026-05-06 21:59 | 31.66679 | -36.68490 | 35000 ft | 394 kts | 236° |
| 2026-05-06 21:59 | 31.63425 | -36.73681 | 35000 ft | 394 kts | 236° |
| 2026-05-06 22:00 | 31.60189 | -36.78836 | 35000 ft | 394 kts | 236° |
| 2026-05-06 22:00 | 31.56917 | -36.84042 | 35000 ft | 394 kts | 236° |
| 2026-05-06 22:01 | 31.53668 | -36.89204 | 35000 ft | 394 kts | 236° |
| 2026-05-06 22:01 | 31.50394 | -36.94398 | 35000 ft | 394 kts | 236° |
| 2026-05-06 22:02 | 31.47144 | -36.99548 | 35000 ft | 394 kts | 236° |
| 2026-05-06 22:02 | 31.43883 | -37.04707 | 35000 ft | 394 kts | 236° |
| 2026-05-06 22:03 | 31.40606 | -37.09886 | 35000 ft | 394 kts | 235° |
| 2026-05-06 22:03 | 31.37350 | -37.15026 | 35000 ft | 394 kts | 235° |
| 2026-05-06 22:04 | 31.34074 | -37.20188 | 35000 ft | 394 kts | 235° |
| 2026-05-06 22:04 | 31.30794 | -37.25351 | 35000 ft | 394 kts | 235° |
| 2026-05-06 22:05 | 31.27521 | -37.30496 | 35000 ft | 394 kts | 235° |
| 2026-05-06 22:05 | 31.24247 | -37.35635 | 35000 ft | 394 kts | 235° |
| 2026-05-06 22:06 | 31.20970 | -37.40773 | 35000 ft | 394 kts | 235° |
| 2026-05-06 22:06 | 31.17689 | -37.45911 | 35000 ft | 394 kts | 235° |
| 2026-05-06 22:07 | 31.14410 | -37.51038 | 35000 ft | 394 kts | 235° |
| 2026-05-06 22:07 | 31.11123 | -37.56171 | 35000 ft | 394 kts | 235° |
| 2026-05-06 22:08 | 31.07830 | -37.61307 | 35000 ft | 394 kts | 235° |
| 2026-05-06 22:08 | 31.04541 | -37.66429 | 35000 ft | 394 kts | 235° |
| 2026-05-06 22:09 | 31.01240 | -37.71565 | 35000 ft | 394 kts | 235° |
| 2026-05-06 22:09 | 30.97958 | -37.76663 | 35000 ft | 394 kts | 235° |
| 2026-05-06 22:10 | 30.94659 | -37.81782 | 35000 ft | 394 kts | 235° |
| 2026-05-06 22:10 | 30.91367 | -37.86883 | 35000 ft | 394 kts | 235° |
| 2026-05-06 22:11 | 30.88071 | -37.91983 | 35000 ft | 394 kts | 235° |
| 2026-05-06 22:11 | 30.84754 | -37.97108 | 35000 ft | 394 kts | 235° |
| 2026-05-06 22:12 | 30.81462 | -38.02190 | 35000 ft | 394 kts | 235° |
| 2026-05-06 22:12 | 30.78141 | -38.07309 | 35000 ft | 394 kts | 235° |
| 2026-05-06 22:13 | 30.74840 | -38.12391 | 35000 ft | 394 kts | 235° |
| 2026-05-06 22:13 | 30.71536 | -38.17471 | 35000 ft | 394 kts | 235° |
| 2026-05-06 22:14 | 30.68208 | -38.22581 | 35000 ft | 394 kts | 235° |
| 2026-05-06 22:14 | 30.64911 | -38.27637 | 35000 ft | 394 kts | 235° |
| 2026-05-06 22:15 | 30.61581 | -38.32737 | 35000 ft | 394 kts | 235° |
| 2026-05-06 22:15 | 30.58271 | -38.37800 | 35000 ft | 394 kts | 235° |
| 2026-05-06 22:16 | 30.54941 | -38.42887 | 35000 ft | 394 kts | 235° |
| 2026-05-06 22:16 | 30.51615 | -38.47963 | 35000 ft | 394 kts | 235° |
| 2026-05-06 22:17 | 30.48302 | -38.53010 | 35000 ft | 395 kts | 234° |
| 2026-05-06 22:17 | 30.44974 | -38.58075 | 35000 ft | 395 kts | 234° |
| 2026-05-06 22:18 | 30.41656 | -38.63118 | 35000 ft | 395 kts | 234° |
| 2026-05-06 22:18 | 30.38304 | -38.68206 | 35000 ft | 395 kts | 234° |
| 2026-05-06 22:19 | 30.34986 | -38.73237 | 35000 ft | 395 kts | 234° |
| 2026-05-06 22:19 | 30.31656 | -38.78279 | 35000 ft | 395 kts | 234° |
| 2026-05-06 22:20 | 30.28864 | -38.82501 | 35000 ft | 395 kts | 234° |
| 2026-05-06 22:20 | 30.25536 | -38.87529 | 35000 ft | 395 kts | 234° |
| 2026-05-06 22:21 | 30.22190 | -38.92577 | 35000 ft | 395 kts | 234° |
| 2026-05-06 22:21 | 30.18837 | -38.97630 | 35000 ft | 395 kts | 234° |
| 2026-05-06 22:22 | 30.15494 | -39.02661 | 35000 ft | 395 kts | 234° |
| 2026-05-06 22:22 | 30.12163 | -39.07669 | 35000 ft | 395 kts | 234° |
| 2026-05-06 22:23 | 30.08811 | -39.12700 | 35000 ft | 395 kts | 234° |
| 2026-05-06 22:23 | 30.05462 | -39.17721 | 35000 ft | 395 kts | 234° |
| 2026-05-06 22:24 | 30.02095 | -39.22764 | 35000 ft | 395 kts | 234° |
| 2026-05-06 22:24 | 29.98745 | -39.27774 | 35000 ft | 395 kts | 234° |
| 2026-05-06 22:25 | 29.95404 | -39.32764 | 35000 ft | 395 kts | 234° |
| 2026-05-06 22:25 | 29.92032 | -39.37795 | 35000 ft | 395 kts | 234° |
| 2026-05-06 22:26 | 29.88682 | -39.42787 | 35000 ft | 395 kts | 234° |
| 2026-05-06 22:26 | 29.85309 | -39.47807 | 35000 ft | 395 kts | 234° |
| 2026-05-06 22:27 | 29.81942 | -39.52812 | 35000 ft | 395 kts | 234° |
| 2026-05-06 22:27 | 29.78592 | -39.57786 | 35000 ft | 395 kts | 234° |
| 2026-05-06 22:28 | 29.75217 | -39.62790 | 35000 ft | 395 kts | 234° |
| 2026-05-06 22:28 | 29.71850 | -39.67777 | 35000 ft | 395 kts | 234° |
| 2026-05-06 22:29 | 29.68471 | -39.72775 | 35000 ft | 395 kts | 234° |
| 2026-05-06 22:29 | 29.65105 | -39.77748 | 35000 ft | 395 kts | 234° |
| 2026-05-06 22:30 | 29.61724 | -39.82737 | 35000 ft | 395 kts | 234° |
| 2026-05-06 22:30 | 29.58338 | -39.87728 | 35000 ft | 395 kts | 234° |
| 2026-05-06 22:31 | 29.54962 | -39.92699 | 35000 ft | 395 kts | 234° |
| 2026-05-06 22:31 | 29.51615 | -39.97698 | 35000 ft | 394 kts | 236° |
| 2026-05-06 22:32 | 29.48543 | -40.02895 | 35000 ft | 394 kts | 239° |
| 2026-05-06 22:32 | 29.45620 | -40.08187 | 35000 ft | 393 kts | 240° |
| 2026-05-06 22:33 | 29.42729 | -40.13544 | 35000 ft | 393 kts | 240° |
| 2026-05-06 22:33 | 29.39862 | -40.18891 | 35000 ft | 393 kts | 240° |
| 2026-05-06 22:34 | 29.37000 | -40.24233 | 35000 ft | 393 kts | 240° |
| 2026-05-06 22:34 | 29.34143 | -40.29558 | 35000 ft | 393 kts | 240° |
| 2026-05-06 22:35 | 29.31269 | -40.34906 | 35000 ft | 393 kts | 240° |
| 2026-05-06 22:35 | 29.28388 | -40.40261 | 35000 ft | 393 kts | 240° |
| 2026-05-06 22:36 | 29.25520 | -40.45579 | 35000 ft | 393 kts | 240° |
| 2026-05-06 22:36 | 29.22649 | -40.50898 | 35000 ft | 393 kts | 240° |
| 2026-05-06 22:37 | 29.19764 | -40.56233 | 35000 ft | 393 kts | 240° |
| 2026-05-06 22:37 | 29.16886 | -40.61549 | 35000 ft | 393 kts | 240° |
| 2026-05-06 22:38 | 29.13995 | -40.66880 | 35000 ft | 393 kts | 240° |
| 2026-05-06 22:38 | 29.11106 | -40.72202 | 35000 ft | 393 kts | 240° |
| 2026-05-06 22:39 | 29.08223 | -40.77506 | 35000 ft | 393 kts | 240° |
| 2026-05-06 22:39 | 29.05328 | -40.82825 | 35000 ft | 393 kts | 240° |
| 2026-05-06 22:40 | 29.02435 | -40.88134 | 35000 ft | 393 kts | 240° |
| 2026-05-06 22:40 | 28.99542 | -40.93434 | 35000 ft | 393 kts | 240° |
| 2026-05-06 22:41 | 28.95210 | -41.01359 | 35000 ft | 393 kts | 240° |
| 2026-05-06 22:42 | 28.92309 | -41.06657 | 35000 ft | 393 kts | 240° |
| 2026-05-06 22:42 | 28.89402 | -41.11961 | 35000 ft | 393 kts | 240° |
| 2026-05-06 22:43 | 28.86489 | -41.17269 | 35000 ft | 393 kts | 240° |
| 2026-05-06 22:43 | 28.83589 | -41.22546 | 35000 ft | 393 kts | 239° |
| 2026-05-06 22:44 | 28.80668 | -41.27854 | 35000 ft | 393 kts | 239° |
| 2026-05-06 22:44 | 28.77767 | -41.33118 | 35000 ft | 393 kts | 239° |
| 2026-05-06 22:45 | 28.74847 | -41.38412 | 35000 ft | 393 kts | 239° |
| 2026-05-06 22:45 | 28.71940 | -41.43675 | 35000 ft | 393 kts | 239° |
| 2026-05-06 22:46 | 28.69015 | -41.48963 | 35000 ft | 393 kts | 239° |
| 2026-05-06 22:46 | 28.66099 | -41.54230 | 35000 ft | 393 kts | 239° |
| 2026-05-06 22:47 | 28.63169 | -41.59514 | 35000 ft | 393 kts | 239° |
| 2026-05-06 22:47 | 28.60261 | -41.64752 | 35000 ft | 393 kts | 239° |
| 2026-05-06 22:48 | 28.57327 | -41.70032 | 35000 ft | 393 kts | 239° |
| 2026-05-06 22:48 | 28.54405 | -41.75282 | 35000 ft | 393 kts | 239° |
| 2026-05-06 22:49 | 28.51472 | -41.80545 | 35000 ft | 393 kts | 239° |
| 2026-05-06 22:49 | 28.48531 | -41.85816 | 35000 ft | 393 kts | 239° |
| 2026-05-06 22:50 | 28.45598 | -41.91067 | 35000 ft | 393 kts | 239° |
| 2026-05-06 22:50 | 28.42660 | -41.96320 | 35000 ft | 393 kts | 239° |
| 2026-05-06 22:51 | 28.39734 | -42.01545 | 35000 ft | 393 kts | 239° |
| 2026-05-06 22:51 | 28.36799 | -42.06779 | 35000 ft | 393 kts | 239° |
| 2026-05-06 22:52 | 28.34351 | -42.11140 | 35000 ft | 393 kts | 239° |
| 2026-05-06 22:52 | 28.30919 | -42.17247 | 35000 ft | 393 kts | 239° |
| 2026-05-06 22:53 | 28.28465 | -42.21608 | 35000 ft | 393 kts | 239° |
| 2026-05-06 22:53 | 28.25517 | -42.26841 | 35000 ft | 393 kts | 239° |
| 2026-05-06 22:54 | 28.22569 | -42.32067 | 35000 ft | 393 kts | 239° |
| 2026-05-06 22:54 | 28.19600 | -42.37325 | 35000 ft | 393 kts | 239° |
| 2026-05-06 22:55 | 28.16660 | -42.42525 | 35000 ft | 393 kts | 239° |
| 2026-05-06 22:55 | 28.13701 | -42.47750 | 35000 ft | 393 kts | 239° |
| 2026-05-06 22:56 | 28.10734 | -42.52985 | 35000 ft | 393 kts | 239° |
| 2026-05-06 22:56 | 28.07763 | -42.58220 | 35000 ft | 393 kts | 239° |
| 2026-05-06 22:57 | 28.04806 | -42.63425 | 35000 ft | 393 kts | 239° |
| 2026-05-06 22:57 | 28.01848 | -42.68624 | 35000 ft | 393 kts | 239° |
| 2026-05-06 22:58 | 27.98888 | -42.73821 | 35000 ft | 393 kts | 239° |
| 2026-05-06 22:58 | 27.95927 | -42.79014 | 35000 ft | 393 kts | 239° |
| 2026-05-06 22:59 | 27.92953 | -42.84222 | 35000 ft | 393 kts | 239° |
| 2026-05-06 22:59 | 27.89969 | -42.89443 | 35000 ft | 393 kts | 239° |
| 2026-05-06 23:00 | 27.87001 | -42.94627 | 35000 ft | 393 kts | 239° |
| 2026-05-06 23:00 | 27.84017 | -42.99835 | 35000 ft | 393 kts | 239° |
| 2026-05-06 23:01 | 27.81039 | -43.05027 | 35000 ft | 393 kts | 239° |
| 2026-05-06 23:01 | 27.78078 | -43.10181 | 35000 ft | 393 kts | 239° |
| 2026-05-06 23:02 | 27.75083 | -43.15389 | 35000 ft | 393 kts | 239° |
| 2026-05-06 23:02 | 27.72113 | -43.20548 | 35000 ft | 393 kts | 239° |
| 2026-05-06 23:03 | 27.69122 | -43.25735 | 35000 ft | 393 kts | 239° |
| 2026-05-06 23:03 | 27.66123 | -43.30932 | 35000 ft | 393 kts | 239° |
| 2026-05-06 23:04 | 27.63154 | -43.36070 | 35000 ft | 393 kts | 239° |
| 2026-05-06 23:04 | 27.60151 | -43.41261 | 35000 ft | 393 kts | 239° |
| 2026-05-06 23:05 | 27.57167 | -43.46412 | 35000 ft | 393 kts | 239° |
| 2026-05-06 23:05 | 27.54165 | -43.51589 | 35000 ft | 393 kts | 239° |
| 2026-05-06 23:06 | 27.51176 | -43.56738 | 35000 ft | 393 kts | 238° |
| 2026-05-06 23:06 | 27.48172 | -43.61906 | 35000 ft | 393 kts | 238° |
| 2026-05-06 23:07 | 27.45172 | -43.67061 | 35000 ft | 393 kts | 238° |
| 2026-05-06 23:07 | 27.42183 | -43.72190 | 35000 ft | 393 kts | 238° |
| 2026-05-06 23:08 | 27.39173 | -43.77351 | 35000 ft | 393 kts | 238° |
| 2026-05-06 23:08 | 27.36163 | -43.82504 | 35000 ft | 393 kts | 238° |
| 2026-05-06 23:09 | 27.33157 | -43.87646 | 35000 ft | 393 kts | 238° |
| 2026-05-06 23:09 | 27.30140 | -43.92799 | 35000 ft | 393 kts | 238° |
| 2026-05-06 23:10 | 27.27142 | -43.97914 | 35000 ft | 393 kts | 238° |
| 2026-05-06 23:10 | 27.24127 | -44.03053 | 35000 ft | 393 kts | 238° |
| 2026-05-06 23:11 | 27.21103 | -44.08202 | 35000 ft | 393 kts | 238° |
| 2026-05-06 23:11 | 27.18084 | -44.13335 | 35000 ft | 393 kts | 238° |
| 2026-05-06 23:12 | 27.15055 | -44.18479 | 35000 ft | 393 kts | 238° |
| 2026-05-06 23:12 | 27.12053 | -44.23573 | 35000 ft | 393 kts | 238° |
| 2026-05-06 23:13 | 27.09028 | -44.28697 | 35000 ft | 393 kts | 238° |
| 2026-05-06 23:13 | 27.06000 | -44.33823 | 35000 ft | 393 kts | 238° |
| 2026-05-06 23:14 | 27.02978 | -44.38931 | 35000 ft | 393 kts | 238° |
| 2026-05-06 23:14 | 26.99932 | -44.44074 | 35000 ft | 393 kts | 238° |
| 2026-05-06 23:15 | 26.96899 | -44.49191 | 35000 ft | 393 kts | 238° |
| 2026-05-06 23:15 | 26.93879 | -44.54279 | 35000 ft | 393 kts | 238° |
| 2026-05-06 23:16 | 26.90845 | -44.59384 | 35000 ft | 393 kts | 238° |
| 2026-05-06 23:16 | 26.87801 | -44.64501 | 35000 ft | 394 kts | 238° |
| 2026-05-06 23:17 | 26.84758 | -44.69611 | 35000 ft | 394 kts | 238° |
| 2026-05-06 23:17 | 26.81737 | -44.74676 | 35000 ft | 394 kts | 238° |
| 2026-05-06 23:18 | 26.78684 | -44.79792 | 35000 ft | 394 kts | 238° |
| 2026-05-06 23:18 | 26.75632 | -44.84898 | 35000 ft | 394 kts | 238° |
| 2026-05-06 23:19 | 26.72599 | -44.89966 | 35000 ft | 394 kts | 238° |
| 2026-05-06 23:19 | 26.69551 | -44.95055 | 35000 ft | 394 kts | 238° |
| 2026-05-06 23:20 | 26.66506 | -45.00133 | 35000 ft | 394 kts | 238° |
| 2026-05-06 23:20 | 26.63450 | -45.05224 | 35000 ft | 394 kts | 238° |
| 2026-05-06 23:21 | 26.60400 | -45.10299 | 35000 ft | 394 kts | 238° |
| 2026-05-06 23:21 | 26.57353 | -45.15363 | 35000 ft | 394 kts | 238° |
| 2026-05-06 23:22 | 26.54285 | -45.20456 | 35000 ft | 394 kts | 238° |
| 2026-05-06 23:22 | 26.51233 | -45.25516 | 35000 ft | 394 kts | 238° |
| 2026-05-06 23:23 | 26.48174 | -45.30583 | 35000 ft | 394 kts | 238° |
| 2026-05-06 23:23 | 26.45100 | -45.35671 | 35000 ft | 394 kts | 238° |
| 2026-05-06 23:24 | 26.42050 | -45.40711 | 35000 ft | 394 kts | 238° |
| 2026-05-06 23:24 | 26.38984 | -45.45773 | 35000 ft | 394 kts | 238° |
| 2026-05-06 23:25 | 26.35919 | -45.50826 | 35000 ft | 394 kts | 238° |
| 2026-05-06 23:25 | 26.32851 | -45.55881 | 35000 ft | 394 kts | 238° |
| 2026-05-06 23:26 | 26.30280 | -45.60111 | 35000 ft | 394 kts | 238° |
| 2026-05-06 23:26 | 26.27209 | -45.65159 | 35000 ft | 394 kts | 238° |
| 2026-05-06 23:27 | 26.24134 | -45.70209 | 35000 ft | 394 kts | 238° |
| 2026-05-06 23:27 | 26.21042 | -45.75280 | 35000 ft | 394 kts | 238° |
| 2026-05-06 23:28 | 26.17979 | -45.80298 | 35000 ft | 394 kts | 238° |
| 2026-05-06 23:28 | 26.14905 | -45.85330 | 35000 ft | 394 kts | 238° |
| 2026-05-06 23:29 | 26.11808 | -45.90392 | 35000 ft | 394 kts | 238° |
| 2026-05-06 23:29 | 26.08732 | -45.95416 | 35000 ft | 394 kts | 238° |
| 2026-05-06 23:30 | 26.05650 | -46.00443 | 35000 ft | 394 kts | 238° |
| 2026-05-06 23:30 | 26.02551 | -46.05493 | 35000 ft | 394 kts | 237° |
| 2026-05-06 23:31 | 25.99459 | -46.10527 | 35000 ft | 394 kts | 237° |
| 2026-05-06 23:31 | 25.96378 | -46.15536 | 35000 ft | 394 kts | 237° |
| 2026-05-06 23:32 | 25.93280 | -46.20568 | 35000 ft | 394 kts | 237° |
| 2026-05-06 23:32 | 25.90191 | -46.25580 | 35000 ft | 394 kts | 237° |
| 2026-05-06 23:33 | 25.87084 | -46.30615 | 35000 ft | 394 kts | 237° |
| 2026-05-06 23:33 | 25.83995 | -46.35616 | 35000 ft | 394 kts | 237° |
| 2026-05-06 23:34 | 25.80879 | -46.40654 | 35000 ft | 394 kts | 237° |
| 2026-05-06 23:34 | 25.77774 | -46.45671 | 35000 ft | 394 kts | 237° |
| 2026-05-06 23:35 | 25.74685 | -46.50655 | 35000 ft | 394 kts | 237° |
| 2026-05-06 23:35 | 25.71578 | -46.55664 | 35000 ft | 394 kts | 237° |
| 2026-05-06 23:36 | 25.68462 | -46.60680 | 35000 ft | 394 kts | 237° |
| 2026-05-06 23:36 | 25.65365 | -46.65662 | 35000 ft | 394 kts | 237° |
| 2026-05-06 23:37 | 25.62242 | -46.70680 | 35000 ft | 394 kts | 237° |
| 2026-05-06 23:37 | 25.59138 | -46.75663 | 35000 ft | 394 kts | 237° |
| 2026-05-06 23:38 | 25.56032 | -46.80643 | 35000 ft | 394 kts | 237° |
| 2026-05-06 23:38 | 25.52907 | -46.85648 | 35000 ft | 394 kts | 237° |
| 2026-05-06 23:39 | 25.49784 | -46.90645 | 35000 ft | 394 kts | 237° |
| 2026-05-06 23:39 | 25.46665 | -46.95629 | 35000 ft | 394 kts | 237° |
| 2026-05-06 23:40 | 25.43560 | -47.00586 | 35000 ft | 394 kts | 237° |
| 2026-05-06 23:40 | 25.40426 | -47.05586 | 35000 ft | 394 kts | 237° |
| 2026-05-06 23:41 | 25.37292 | -47.10579 | 35000 ft | 394 kts | 237° |
| 2026-05-06 23:41 | 25.34171 | -47.15546 | 35000 ft | 394 kts | 237° |
| 2026-05-06 23:42 | 25.31055 | -47.20499 | 35000 ft | 394 kts | 237° |
| 2026-05-06 23:42 | 25.27927 | -47.25468 | 35000 ft | 394 kts | 237° |
| 2026-05-06 23:43 | 25.24780 | -47.30460 | 35000 ft | 394 kts | 237° |
| 2026-05-06 23:43 | 25.21658 | -47.35408 | 35000 ft | 394 kts | 237° |
| 2026-05-06 23:44 | 25.18530 | -47.40361 | 35000 ft | 394 kts | 237° |
| 2026-05-06 23:44 | 25.15380 | -47.45342 | 35000 ft | 394 kts | 237° |
| 2026-05-06 23:45 | 25.12255 | -47.50279 | 35000 ft | 394 kts | 237° |
| 2026-05-06 23:45 | 25.09119 | -47.55229 | 35000 ft | 394 kts | 237° |
| 2026-05-06 23:46 | 25.05974 | -47.60187 | 35000 ft | 394 kts | 237° |
| 2026-05-06 23:46 | 25.02822 | -47.65152 | 35000 ft | 394 kts | 237° |
| 2026-05-06 23:47 | 24.99672 | -47.70108 | 35000 ft | 394 kts | 237° |
| 2026-05-06 23:47 | 24.96542 | -47.75028 | 35000 ft | 394 kts | 237° |
| 2026-05-06 23:48 | 24.93391 | -47.79975 | 35000 ft | 394 kts | 237° |
| 2026-05-06 23:48 | 24.90228 | -47.84937 | 35000 ft | 394 kts | 237° |
| 2026-05-06 23:49 | 24.87089 | -47.89854 | 35000 ft | 394 kts | 237° |
| 2026-05-06 23:49 | 24.83940 | -47.94785 | 35000 ft | 394 kts | 237° |
| 2026-05-06 23:50 | 24.80782 | -47.99723 | 35000 ft | 394 kts | 237° |
| 2026-05-06 23:50 | 24.76040 | -48.07128 | 35000 ft | 394 kts | 237° |
| 2026-05-06 23:51 | 24.72887 | -48.12046 | 35000 ft | 394 kts | 237° |
| 2026-05-06 23:51 | 24.69735 | -48.16958 | 35000 ft | 394 kts | 237° |
| 2026-05-06 23:52 | 24.66560 | -48.21899 | 35000 ft | 394 kts | 237° |
| 2026-05-06 23:52 | 24.63394 | -48.26823 | 35000 ft | 394 kts | 237° |
| 2026-05-06 23:53 | 24.60232 | -48.31735 | 35000 ft | 394 kts | 237° |
| 2026-05-06 23:53 | 24.57076 | -48.36633 | 35000 ft | 394 kts | 237° |
| 2026-05-06 23:54 | 24.53908 | -48.41544 | 35000 ft | 394 kts | 237° |
| 2026-05-06 23:54 | 24.50723 | -48.46476 | 35000 ft | 394 kts | 237° |
| 2026-05-06 23:55 | 24.47553 | -48.51381 | 35000 ft | 394 kts | 237° |
| 2026-05-06 23:55 | 24.44401 | -48.56252 | 35000 ft | 394 kts | 237° |
| 2026-05-06 23:56 | 24.41227 | -48.61154 | 35000 ft | 394 kts | 237° |
| 2026-05-06 23:56 | 24.38038 | -48.66073 | 35000 ft | 394 kts | 236° |
| 2026-05-06 23:57 | 24.35391 | -48.70153 | 35000 ft | 394 kts | 236° |
| 2026-05-06 23:57 | 24.31683 | -48.75861 | 35000 ft | 394 kts | 236° |
| 2026-05-06 23:58 | 24.28505 | -48.80748 | 35000 ft | 394 kts | 236° |
| 2026-05-06 23:58 | 24.25847 | -48.84832 | 35000 ft | 394 kts | 236° |
| 2026-05-06 23:59 | 24.22663 | -48.89721 | 35000 ft | 394 kts | 236° |
| 2026-05-06 23:59 | 24.19487 | -48.94591 | 35000 ft | 394 kts | 236° |
| 2026-05-07 00:00 | 24.16299 | -48.99476 | 35000 ft | 394 kts | 236° |
| 2026-05-07 00:00 | 24.13100 | -49.04372 | 35000 ft | 394 kts | 236° |
| 2026-05-07 00:01 | 24.09899 | -49.09267 | 35000 ft | 394 kts | 236° |
| 2026-05-07 00:01 | 24.06719 | -49.14125 | 35000 ft | 394 kts | 236° |
| 2026-05-07 00:02 | 24.03519 | -49.19008 | 35000 ft | 394 kts | 236° |
| 2026-05-07 00:02 | 24.00328 | -49.23873 | 35000 ft | 394 kts | 236° |
| 2026-05-07 00:03 | 23.97136 | -49.28735 | 35000 ft | 394 kts | 236° |
| 2026-05-07 00:03 | 23.93922 | -49.33626 | 35000 ft | 394 kts | 236° |
| 2026-05-07 00:04 | 23.90729 | -49.38480 | 35000 ft | 394 kts | 236° |
| 2026-05-07 00:04 | 23.87536 | -49.43329 | 35000 ft | 394 kts | 236° |
| 2026-05-07 00:05 | 23.84330 | -49.48194 | 35000 ft | 394 kts | 236° |
| 2026-05-07 00:05 | 23.81117 | -49.53063 | 35000 ft | 394 kts | 236° |
| 2026-05-07 00:06 | 23.77916 | -49.57910 | 35000 ft | 394 kts | 236° |
| 2026-05-07 00:06 | 23.74691 | -49.62789 | 35000 ft | 394 kts | 236° |
| 2026-05-07 00:07 | 23.71481 | -49.67642 | 35000 ft | 394 kts | 236° |
| 2026-05-07 00:07 | 23.68280 | -49.72475 | 35000 ft | 394 kts | 236° |
| 2026-05-07 00:08 | 23.65065 | -49.77326 | 35000 ft | 394 kts | 236° |
| 2026-05-07 00:08 | 23.61854 | -49.82164 | 35000 ft | 394 kts | 236° |
| 2026-05-07 00:09 | 23.58640 | -49.87004 | 35000 ft | 394 kts | 236° |
| 2026-05-07 00:09 | 23.55422 | -49.91845 | 35000 ft | 394 kts | 236° |
| 2026-05-07 00:10 | 23.52210 | -49.96684 | 35000 ft | 394 kts | 236° |
| 2026-05-07 00:10 | 23.49138 | -50.01643 | 35000 ft | 393 kts | 239° |
| 2026-05-07 00:11 | 23.46201 | -50.06639 | 35000 ft | 393 kts | 239° |
| 2026-05-07 00:11 | 23.43276 | -50.11707 | 35000 ft | 393 kts | 240° |
| 2026-05-07 00:12 | 23.40390 | -50.16732 | 35000 ft | 393 kts | 240° |
| 2026-05-07 00:12 | 23.37494 | -50.21781 | 35000 ft | 393 kts | 240° |
| 2026-05-07 00:13 | 23.34588 | -50.26843 | 35000 ft | 393 kts | 240° |
| 2026-05-07 00:13 | 23.31700 | -50.31867 | 35000 ft | 393 kts | 240° |
| 2026-05-07 00:14 | 23.28795 | -50.36915 | 35000 ft | 393 kts | 240° |
| 2026-05-07 00:14 | 23.25883 | -50.41969 | 35000 ft | 393 kts | 240° |
| 2026-05-07 00:15 | 23.22983 | -50.46996 | 35000 ft | 393 kts | 239° |
| 2026-05-07 00:15 | 23.20072 | -50.52037 | 35000 ft | 393 kts | 239° |
| 2026-05-07 00:16 | 23.17171 | -50.57055 | 35000 ft | 393 kts | 239° |
| 2026-05-07 00:16 | 23.14252 | -50.62101 | 35000 ft | 393 kts | 239° |
| 2026-05-07 00:17 | 23.11338 | -50.67130 | 35000 ft | 393 kts | 239° |
| 2026-05-07 00:17 | 23.08425 | -50.72156 | 35000 ft | 393 kts | 239° |
| 2026-05-07 00:18 | 23.05498 | -50.77199 | 35000 ft | 393 kts | 239° |
| 2026-05-07 00:18 | 23.02594 | -50.82197 | 35000 ft | 393 kts | 239° |
| 2026-05-07 00:19 | 22.99666 | -50.87232 | 35000 ft | 393 kts | 239° |
| 2026-05-07 00:19 | 22.96740 | -50.92257 | 35000 ft | 393 kts | 239° |
| 2026-05-07 00:20 | 22.93833 | -50.97248 | 35000 ft | 393 kts | 239° |
| 2026-05-07 00:20 | 22.90908 | -51.02262 | 35000 ft | 393 kts | 239° |
| 2026-05-07 00:21 | 22.87979 | -51.07279 | 35000 ft | 393 kts | 239° |
| 2026-05-07 00:21 | 22.85041 | -51.12306 | 35000 ft | 393 kts | 239° |
| 2026-05-07 00:22 | 22.82126 | -51.17291 | 35000 ft | 393 kts | 239° |
| 2026-05-07 00:22 | 22.79184 | -51.22316 | 35000 ft | 393 kts | 239° |
| 2026-05-07 00:23 | 22.76251 | -51.27320 | 35000 ft | 393 kts | 239° |
| 2026-05-07 00:23 | 22.73328 | -51.32302 | 35000 ft | 393 kts | 239° |
| 2026-05-07 00:24 | 22.70389 | -51.37308 | 35000 ft | 393 kts | 239° |
| 2026-05-07 00:24 | 22.67450 | -51.42308 | 35000 ft | 393 kts | 239° |
| 2026-05-07 00:25 | 22.64516 | -51.47295 | 35000 ft | 393 kts | 239° |
| 2026-05-07 00:25 | 22.61584 | -51.52275 | 35000 ft | 393 kts | 239° |
| 2026-05-07 00:26 | 22.58631 | -51.57285 | 35000 ft | 393 kts | 239° |
| 2026-05-07 00:26 | 22.55698 | -51.62255 | 35000 ft | 393 kts | 239° |
| 2026-05-07 00:27 | 22.52757 | -51.67236 | 35000 ft | 393 kts | 239° |
| 2026-05-07 00:27 | 22.49794 | -51.72248 | 35000 ft | 393 kts | 239° |
| 2026-05-07 00:28 | 22.46848 | -51.77227 | 35000 ft | 393 kts | 239° |
| 2026-05-07 00:28 | 22.43901 | -51.82203 | 35000 ft | 393 kts | 239° |
| 2026-05-07 00:29 | 22.40958 | -51.87168 | 35000 ft | 393 kts | 239° |
| 2026-05-07 00:30 | 22.35531 | -51.96310 | 35000 ft | 393 kts | 239° |
| 2026-05-07 00:30 | 22.32574 | -52.01285 | 35000 ft | 393 kts | 239° |
| 2026-05-07 00:31 | 22.29618 | -52.06253 | 35000 ft | 393 kts | 239° |
| 2026-05-07 00:31 | 22.26664 | -52.11214 | 35000 ft | 393 kts | 239° |
| 2026-05-07 00:32 | 22.23691 | -52.16202 | 35000 ft | 393 kts | 239° |
| 2026-05-07 00:32 | 22.20736 | -52.21155 | 35000 ft | 393 kts | 239° |
| 2026-05-07 00:33 | 22.17780 | -52.26105 | 35000 ft | 393 kts | 239° |
| 2026-05-07 00:33 | 22.14808 | -52.31078 | 35000 ft | 393 kts | 239° |
| 2026-05-07 00:34 | 22.11842 | -52.36036 | 35000 ft | 393 kts | 239° |
| 2026-05-07 00:34 | 22.08865 | -52.41007 | 35000 ft | 393 kts | 239° |
| 2026-05-07 00:35 | 22.05901 | -52.45953 | 35000 ft | 393 kts | 239° |
| 2026-05-07 00:35 | 22.02921 | -52.50919 | 35000 ft | 393 kts | 239° |
| 2026-05-07 00:36 | 21.99950 | -52.55868 | 35000 ft | 393 kts | 239° |
| 2026-05-07 00:36 | 21.96995 | -52.60784 | 35000 ft | 393 kts | 239° |
| 2026-05-07 00:37 | 21.94001 | -52.65760 | 35000 ft | 393 kts | 239° |
| 2026-05-07 00:37 | 21.91028 | -52.70699 | 35000 ft | 393 kts | 239° |
| 2026-05-07 00:38 | 21.88057 | -52.75628 | 35000 ft | 393 kts | 239° |
| 2026-05-07 00:38 | 21.85063 | -52.80591 | 35000 ft | 393 kts | 239° |
| 2026-05-07 00:39 | 21.82085 | -52.85523 | 35000 ft | 393 kts | 239° |
| 2026-05-07 00:39 | 21.79113 | -52.90442 | 35000 ft | 393 kts | 239° |
| 2026-05-07 00:40 | 21.76120 | -52.95390 | 35000 ft | 393 kts | 239° |
| 2026-05-07 00:40 | 21.73124 | -53.00337 | 35000 ft | 393 kts | 239° |
| 2026-05-07 00:41 | 21.70154 | -53.05239 | 35000 ft | 393 kts | 239° |
| 2026-05-07 00:41 | 21.67153 | -53.10187 | 35000 ft | 393 kts | 239° |
| 2026-05-07 00:42 | 21.64170 | -53.15101 | 35000 ft | 393 kts | 239° |
| 2026-05-07 00:42 | 21.61159 | -53.20055 | 35000 ft | 393 kts | 239° |
| 2026-05-07 00:43 | 21.58184 | -53.24948 | 35000 ft | 394 kts | 239° |
| 2026-05-07 00:43 | 21.56651 | -53.27470 | 35003 ft | 411 kts | 239° |
| 2026-05-07 00:43 | 21.55058 | -53.30095 | 35006 ft | 433 kts | 238° |
| 2026-05-07 00:44 | 21.53354 | -53.32904 | 35006 ft | 456 kts | 238° |
| 2026-05-07 00:44 | 21.51578 | -53.35829 | 35005 ft | 475 kts | 238° |
| 2026-05-07 00:44 | 21.47986 | -53.41725 | 35000 ft | 468 kts | 238° |
| 2026-05-07 00:45 | 21.44376 | -53.47631 | 35001 ft | 476 kts | 238° |
| 2026-05-07 00:45 | 21.40730 | -53.53587 | 35000 ft | 476 kts | 238° |
| 2026-05-07 00:46 | 21.37104 | -53.59506 | 35000 ft | 477 kts | 238° |
| 2026-05-07 00:46 | 21.33445 | -53.65472 | 35000 ft | 478 kts | 238° |
| 2026-05-07 00:47 | 21.29788 | -53.71431 | 35000 ft | 478 kts | 238° |
| 2026-05-07 00:47 | 21.26139 | -53.77371 | 35000 ft | 478 kts | 238° |
| 2026-05-07 00:48 | 21.22484 | -53.83316 | 35000 ft | 478 kts | 238° |
| 2026-05-07 00:48 | 21.18809 | -53.89288 | 35000 ft | 478 kts | 238° |
| 2026-05-07 00:49 | 21.15164 | -53.95205 | 35000 ft | 478 kts | 238° |
| 2026-05-07 00:49 | 21.11498 | -54.01152 | 35000 ft | 478 kts | 238° |
| 2026-05-07 00:50 | 21.07829 | -54.07095 | 35000 ft | 478 kts | 238° |
| 2026-05-07 00:50 | 21.04166 | -54.13025 | 35000 ft | 478 kts | 238° |
| 2026-05-07 00:51 | 21.00477 | -54.18989 | 35000 ft | 478 kts | 238° |
| 2026-05-07 00:51 | 20.96811 | -54.24910 | 35000 ft | 478 kts | 238° |
| 2026-05-07 00:52 | 20.93135 | -54.30841 | 35000 ft | 478 kts | 238° |
| 2026-05-07 00:52 | 20.89444 | -54.36790 | 35000 ft | 478 kts | 238° |
| 2026-05-07 00:53 | 20.85772 | -54.42704 | 35000 ft | 478 kts | 238° |
| 2026-05-07 00:53 | 20.82084 | -54.48635 | 35000 ft | 478 kts | 238° |
| 2026-05-07 00:54 | 20.78404 | -54.54550 | 35000 ft | 478 kts | 238° |
| 2026-05-07 00:54 | 20.74702 | -54.60491 | 35000 ft | 478 kts | 238° |
| 2026-05-07 00:55 | 20.71001 | -54.66428 | 35001 ft | 483 kts | 238° |
| 2026-05-07 00:55 | 20.67264 | -54.72416 | 35000 ft | 486 kts | 238° |
| 2026-05-07 00:56 | 20.63497 | -54.78446 | 35000 ft | 488 kts | 238° |
| 2026-05-07 00:56 | 20.59732 | -54.84463 | 35000 ft | 489 kts | 238° |
| 2026-05-07 00:57 | 20.55948 | -54.90506 | 35000 ft | 489 kts | 238° |
| 2026-05-07 00:57 | 20.52158 | -54.96547 | 35000 ft | 489 kts | 237° |
| 2026-05-07 00:58 | 20.47656 | -55.02042 | 35002 ft | 493 kts | 226° |
| 2026-05-07 00:58 | 20.42452 | -55.06863 | 35001 ft | 495 kts | 221° |
| 2026-05-07 00:59 | 20.34277 | -55.13545 | 35000 ft | 495 kts | 219° |
| 2026-05-07 01:00 | 20.28715 | -55.17927 | 35000 ft | 495 kts | 219° |
| 2026-05-07 01:00 | 20.23167 | -55.22286 | 35000 ft | 495 kts | 219° |
| 2026-05-07 01:01 | 20.17662 | -55.26630 | 35000 ft | 495 kts | 219° |
| 2026-05-07 01:01 | 20.12126 | -55.31023 | 35000 ft | 495 kts | 219° |
| 2026-05-07 01:02 | 20.06638 | -55.35401 | 35000 ft | 495 kts | 219° |
| 2026-05-07 01:02 | 20.01109 | -55.39827 | 35000 ft | 495 kts | 219° |
| 2026-05-07 01:03 | 19.95593 | -55.44256 | 35000 ft | 497 kts | 219° |
| 2026-05-07 01:03 | 19.90107 | -55.48668 | 35000 ft | 497 kts | 219° |
| 2026-05-07 01:04 | 19.85503 | -55.52374 | 35000 ft | 497 kts | 219° |
| 2026-05-07 01:04 | 19.79963 | -55.56834 | 35000 ft | 497 kts | 219° |
| 2026-05-07 01:05 | 19.74444 | -55.61277 | 35000 ft | 497 kts | 219° |
| 2026-05-07 01:05 | 19.68916 | -55.65725 | 35000 ft | 497 kts | 219° |
| 2026-05-07 01:06 | 19.63396 | -55.70165 | 35000 ft | 497 kts | 219° |
| 2026-05-07 01:06 | 19.57871 | -55.74607 | 35000 ft | 497 kts | 219° |
| 2026-05-07 01:07 | 19.52356 | -55.79037 | 35000 ft | 497 kts | 219° |
| 2026-05-07 01:07 | 19.46848 | -55.83458 | 35000 ft | 497 kts | 219° |
| 2026-05-07 01:08 | 19.41320 | -55.87892 | 35000 ft | 497 kts | 219° |
| 2026-05-07 01:08 | 19.35788 | -55.92325 | 35000 ft | 497 kts | 219° |
| 2026-05-07 01:09 | 19.30241 | -55.96767 | 35000 ft | 498 kts | 219° |
| 2026-05-07 01:09 | 19.24709 | -56.01193 | 35000 ft | 498 kts | 219° |
| 2026-05-07 01:10 | 19.19175 | -56.05617 | 35000 ft | 498 kts | 219° |
| 2026-05-07 01:10 | 19.13671 | -56.10012 | 35000 ft | 498 kts | 219° |
| 2026-05-07 01:11 | 19.08129 | -56.14436 | 35000 ft | 498 kts | 219° |
| 2026-05-07 01:11 | 19.02593 | -56.18849 | 35000 ft | 498 kts | 219° |
| 2026-05-07 01:12 | 18.97076 | -56.23244 | 35000 ft | 498 kts | 219° |
| 2026-05-07 01:12 | 18.91543 | -56.27649 | 35000 ft | 498 kts | 219° |
| 2026-05-07 01:13 | 18.86000 | -56.32057 | 35000 ft | 498 kts | 219° |
| 2026-05-07 01:13 | 18.80499 | -56.36428 | 35000 ft | 498 kts | 219° |
| 2026-05-07 01:14 | 18.74921 | -56.40857 | 35000 ft | 498 kts | 219° |
| 2026-05-07 01:14 | 18.69397 | -56.45239 | 35000 ft | 498 kts | 219° |
| 2026-05-07 01:15 | 18.63893 | -56.49602 | 35000 ft | 498 kts | 219° |
| 2026-05-07 01:15 | 18.58353 | -56.53990 | 35000 ft | 498 kts | 219° |
| 2026-05-07 01:16 | 18.52805 | -56.58380 | 35000 ft | 498 kts | 219° |
| 2026-05-07 01:16 | 18.47247 | -56.62775 | 35000 ft | 498 kts | 219° |
| 2026-05-07 01:17 | 18.41706 | -56.67152 | 35000 ft | 498 kts | 219° |
| 2026-05-07 01:17 | 18.36166 | -56.71525 | 35000 ft | 498 kts | 219° |
| 2026-05-07 01:18 | 18.30611 | -56.75907 | 35000 ft | 498 kts | 219° |
| 2026-05-07 01:18 | 18.25096 | -56.80254 | 35000 ft | 498 kts | 219° |
| 2026-05-07 01:19 | 18.19525 | -56.84642 | 35000 ft | 498 kts | 219° |
| 2026-05-07 01:19 | 18.13994 | -56.88995 | 35000 ft | 498 kts | 219° |
| 2026-05-07 01:20 | 18.08441 | -56.93361 | 35000 ft | 498 kts | 219° |
| 2026-05-07 01:20 | 18.02875 | -56.97747 | 34999 ft | 497 kts | 220° |
| 2026-05-07 01:21 | 17.97842 | -57.02692 | 35002 ft | 495 kts | 229° |
| 2026-05-07 01:21 | 17.93360 | -57.08200 | 35001 ft | 494 kts | 233° |
| 2026-05-07 01:22 | 17.89181 | -57.13875 | 35000 ft | 493 kts | 234° |
| 2026-05-07 01:22 | 17.85084 | -57.19637 | 35000 ft | 493 kts | 235° |
| 2026-05-07 01:23 | 17.80992 | -57.25413 | 35000 ft | 493 kts | 235° |
| 2026-05-07 01:23 | 17.76865 | -57.31184 | 35000 ft | 493 kts | 234° |
| 2026-05-07 01:24 | 17.72705 | -57.36929 | 35000 ft | 493 kts | 234° |
| 2026-05-07 01:24 | 17.68517 | -57.42645 | 35000 ft | 493 kts | 234° |
| 2026-05-07 01:25 | 17.64332 | -57.48305 | 35000 ft | 493 kts | 234° |
| 2026-05-07 01:25 | 17.60109 | -57.53994 | 35000 ft | 493 kts | 234° |
| 2026-05-07 01:26 | 17.55888 | -57.59670 | 35000 ft | 493 kts | 234° |
| 2026-05-07 01:26 | 17.51662 | -57.65349 | 35000 ft | 493 kts | 233° |
| 2026-05-07 01:27 | 17.47428 | -57.71035 | 35000 ft | 493 kts | 233° |
| 2026-05-07 01:27 | 17.43231 | -57.76668 | 35000 ft | 493 kts | 233° |
| 2026-05-07 01:28 | 17.38985 | -57.82363 | 35000 ft | 493 kts | 233° |
| 2026-05-07 01:28 | 17.34772 | -57.88010 | 35000 ft | 493 kts | 233° |
| 2026-05-07 01:29 | 17.30537 | -57.93684 | 35000 ft | 493 kts | 233° |
| 2026-05-07 01:29 | 17.26318 | -57.99332 | 35000 ft | 493 kts | 233° |
| 2026-05-07 01:30 | 17.22082 | -58.04998 | 35000 ft | 493 kts | 233° |
| 2026-05-07 01:30 | 17.17865 | -58.10634 | 35000 ft | 493 kts | 233° |
| 2026-05-07 01:31 | 17.14331 | -58.15353 | 35000 ft | 493 kts | 233° |
| 2026-05-07 01:31 | 17.10082 | -58.21025 | 35000 ft | 493 kts | 233° |
| 2026-05-07 01:32 | 17.05848 | -58.26670 | 35000 ft | 493 kts | 233° |
| 2026-05-07 01:32 | 17.01610 | -58.32318 | 35000 ft | 493 kts | 233° |
| 2026-05-07 01:33 | 16.97386 | -58.37941 | 35000 ft | 493 kts | 233° |
| 2026-05-07 01:33 | 16.93132 | -58.43600 | 35000 ft | 493 kts | 233° |
| 2026-05-07 01:34 | 16.88910 | -58.49213 | 35000 ft | 493 kts | 233° |
| 2026-05-07 01:34 | 16.84653 | -58.54865 | 35000 ft | 493 kts | 233° |
| 2026-05-07 01:35 | 16.80419 | -58.60485 | 35000 ft | 493 kts | 233° |
| 2026-05-07 01:35 | 16.76168 | -58.66121 | 35000 ft | 493 kts | 233° |
| 2026-05-07 01:36 | 16.71911 | -58.71761 | 35000 ft | 493 kts | 233° |
| 2026-05-07 01:36 | 16.67654 | -58.77398 | 35000 ft | 493 kts | 233° |
| 2026-05-07 01:37 | 16.63414 | -58.83007 | 35000 ft | 493 kts | 233° |
| 2026-05-07 01:37 | 16.59177 | -58.88607 | 35000 ft | 493 kts | 233° |
| 2026-05-07 01:38 | 16.54918 | -58.94231 | 35000 ft | 493 kts | 233° |
| 2026-05-07 01:38 | 16.50652 | -58.99861 | 35000 ft | 493 kts | 233° |
| 2026-05-07 01:39 | 16.46392 | -59.05480 | 35000 ft | 493 kts | 233° |
| 2026-05-07 01:39 | 16.42126 | -59.11100 | 35000 ft | 493 kts | 233° |
| 2026-05-07 01:40 | 16.37867 | -59.16707 | 35000 ft | 493 kts | 233° |
| 2026-05-07 01:40 | 16.33600 | -59.22322 | 35000 ft | 493 kts | 233° |
| 2026-05-07 01:41 | 16.29355 | -59.27903 | 35000 ft | 493 kts | 233° |
| 2026-05-07 01:41 | 16.25090 | -59.33506 | 35000 ft | 493 kts | 233° |
| 2026-05-07 01:42 | 16.20825 | -59.39107 | 35000 ft | 493 kts | 233° |
| 2026-05-07 01:42 | 16.16546 | -59.44721 | 35000 ft | 493 kts | 233° |
| 2026-05-07 01:43 | 16.12270 | -59.50321 | 35000 ft | 493 kts | 233° |
| 2026-05-07 01:43 | 16.08026 | -59.55875 | 35000 ft | 493 kts | 233° |
| 2026-05-07 01:44 | 16.03741 | -59.61480 | 35000 ft | 493 kts | 233° |
| 2026-05-07 01:44 | 15.99477 | -59.67052 | 35000 ft | 493 kts | 233° |
| 2026-05-07 01:45 | 15.95188 | -59.72654 | 35000 ft | 493 kts | 233° |
| 2026-05-07 01:45 | 15.90908 | -59.78240 | 35000 ft | 493 kts | 233° |
| 2026-05-07 01:46 | 15.86622 | -59.83830 | 35000 ft | 493 kts | 233° |
| 2026-05-07 01:46 | 15.82349 | -59.89398 | 35000 ft | 493 kts | 233° |
| 2026-05-07 01:47 | 15.78064 | -59.94980 | 35000 ft | 493 kts | 233° |
| 2026-05-07 01:47 | 15.73780 | -60.00556 | 35000 ft | 493 kts | 233° |
| 2026-05-07 01:48 | 15.69513 | -60.06104 | 35000 ft | 493 kts | 233° |
| 2026-05-07 01:48 | 15.65218 | -60.11686 | 35000 ft | 493 kts | 233° |
| 2026-05-07 01:49 | 15.60934 | -60.17249 | 35000 ft | 493 kts | 233° |
| 2026-05-07 01:49 | 15.56637 | -60.22825 | 35000 ft | 493 kts | 233° |
| 2026-05-07 01:50 | 15.52350 | -60.28384 | 35000 ft | 493 kts | 233° |
| 2026-05-07 01:50 | 15.48078 | -60.33920 | 35000 ft | 493 kts | 233° |
| 2026-05-07 01:51 | 15.43786 | -60.39477 | 35000 ft | 493 kts | 233° |
| 2026-05-07 01:51 | 15.39489 | -60.45036 | 35000 ft | 493 kts | 233° |
| 2026-05-07 01:52 | 15.35188 | -60.50597 | 35000 ft | 493 kts | 233° |
| 2026-05-07 01:52 | 15.30907 | -60.56128 | 35000 ft | 493 kts | 233° |
| 2026-05-07 01:53 | 15.26608 | -60.61678 | 35000 ft | 493 kts | 233° |
| 2026-05-07 01:53 | 15.22310 | -60.67224 | 35000 ft | 493 kts | 233° |
| 2026-05-07 01:54 | 15.18009 | -60.72768 | 35000 ft | 493 kts | 233° |
| 2026-05-07 01:54 | 15.13700 | -60.78319 | 35000 ft | 493 kts | 233° |
| 2026-05-07 01:55 | 15.09379 | -60.83883 | 35000 ft | 493 kts | 233° |
| 2026-05-07 01:55 | 15.05098 | -60.89390 | 35000 ft | 493 kts | 233° |
| 2026-05-07 01:56 | 15.00792 | -60.94926 | 35000 ft | 493 kts | 233° |
| 2026-05-07 01:56 | 14.97185 | -60.99561 | 35000 ft | 493 kts | 233° |
| 2026-05-07 01:57 | 14.92870 | -61.05103 | 35000 ft | 493 kts | 233° |
| 2026-05-07 01:57 | 14.88571 | -61.10621 | 35000 ft | 493 kts | 233° |
| 2026-05-07 01:58 | 14.84262 | -61.16142 | 35000 ft | 493 kts | 233° |
| 2026-05-07 01:58 | 14.79971 | -61.21634 | 35000 ft | 493 kts | 233° |
| 2026-05-07 01:59 | 14.75650 | -61.27161 | 35000 ft | 493 kts | 233° |
| 2026-05-07 01:59 | 14.71325 | -61.32690 | 35000 ft | 493 kts | 233° |
| 2026-05-07 02:00 | 14.67002 | -61.38212 | 35000 ft | 493 kts | 233° |
| 2026-05-07 02:00 | 14.62675 | -61.43737 | 35000 ft | 493 kts | 233° |
| 2026-05-07 02:01 | 14.58376 | -61.49224 | 35000 ft | 493 kts | 233° |
| 2026-05-07 02:01 | 14.54041 | -61.54751 | 35000 ft | 493 kts | 233° |
| 2026-05-07 02:02 | 14.49714 | -61.60266 | 35000 ft | 493 kts | 233° |
| 2026-05-07 02:02 | 14.45404 | -61.65755 | 35000 ft | 493 kts | 233° |
| 2026-05-07 02:03 | 14.41064 | -61.71279 | 35000 ft | 493 kts | 233° |
| 2026-05-07 02:03 | 14.36761 | -61.76751 | 35000 ft | 493 kts | 232° |
| 2026-05-07 02:04 | 14.32436 | -61.82248 | 35000 ft | 493 kts | 232° |
| 2026-05-07 02:04 | 14.28102 | -61.87753 | 35000 ft | 493 kts | 232° |
| 2026-05-07 02:05 | 14.23756 | -61.93270 | 35000 ft | 493 kts | 232° |
| 2026-05-07 02:05 | 14.19434 | -61.98752 | 35000 ft | 493 kts | 232° |
| 2026-05-07 02:06 | 14.15109 | -62.04235 | 35000 ft | 493 kts | 232° |
| 2026-05-07 02:06 | 14.10764 | -62.09739 | 35000 ft | 493 kts | 232° |
| 2026-05-07 02:07 | 14.06428 | -62.15227 | 35000 ft | 493 kts | 232° |
| 2026-05-07 02:07 | 13.99918 | -62.23462 | 35000 ft | 493 kts | 232° |
| 2026-05-07 02:08 | 13.95581 | -62.28943 | 35000 ft | 493 kts | 232° |
| 2026-05-07 02:08 | 13.91262 | -62.34398 | 35000 ft | 493 kts | 232° |
| 2026-05-07 02:09 | 13.86921 | -62.39877 | 35000 ft | 493 kts | 232° |
| 2026-05-07 02:09 | 13.82570 | -62.45365 | 35000 ft | 493 kts | 232° |
| 2026-05-07 02:10 | 13.78236 | -62.50828 | 35000 ft | 493 kts | 232° |
| 2026-05-07 02:10 | 13.73880 | -62.56316 | 35000 ft | 493 kts | 232° |
| 2026-05-07 02:11 | 13.69554 | -62.61762 | 35000 ft | 493 kts | 232° |
| 2026-05-07 02:11 | 13.65207 | -62.67232 | 35000 ft | 493 kts | 232° |
| 2026-05-07 02:12 | 13.60852 | -62.72706 | 35000 ft | 493 kts | 232° |
| 2026-05-07 02:12 | 13.56503 | -62.78171 | 35000 ft | 493 kts | 232° |
| 2026-05-07 02:13 | 13.52147 | -62.83641 | 35000 ft | 493 kts | 232° |
| 2026-05-07 02:13 | 13.47793 | -62.89105 | 35000 ft | 493 kts | 232° |
| 2026-05-07 02:14 | 13.43439 | -62.94565 | 35000 ft | 493 kts | 232° |
| 2026-05-07 02:14 | 13.39102 | -63.00001 | 35000 ft | 493 kts | 232° |
| 2026-05-07 02:15 | 13.34736 | -63.05470 | 35000 ft | 493 kts | 232° |
| 2026-05-07 02:15 | 13.30383 | -63.10918 | 35000 ft | 493 kts | 232° |
| 2026-05-07 02:16 | 13.26027 | -63.16367 | 35000 ft | 493 kts | 232° |
| 2026-05-07 02:16 | 13.21666 | -63.21819 | 35000 ft | 493 kts | 232° |
| 2026-05-07 02:17 | 13.17324 | -63.27245 | 35000 ft | 493 kts | 232° |
| 2026-05-07 02:17 | 13.12964 | -63.32689 | 35000 ft | 493 kts | 232° |
| 2026-05-07 02:18 | 13.08606 | -63.38128 | 35000 ft | 493 kts | 232° |
| 2026-05-07 02:18 | 13.04247 | -63.43566 | 35000 ft | 493 kts | 232° |
| 2026-05-07 02:19 | 12.99875 | -63.49016 | 35000 ft | 493 kts | 232° |
| 2026-05-07 02:19 | 12.95506 | -63.54459 | 35000 ft | 493 kts | 232° |
| 2026-05-07 02:20 | 12.91151 | -63.59883 | 35000 ft | 493 kts | 232° |
| 2026-05-07 02:20 | 12.86875 | -63.65351 | 35000 ft | 493 kts | 234° |
| 2026-05-07 02:21 | 12.82804 | -63.71053 | 35000 ft | 492 kts | 236° |
| 2026-05-07 02:21 | 12.78895 | -63.76797 | 35000 ft | 492 kts | 237° |
| 2026-05-07 02:22 | 12.75033 | -63.82579 | 35000 ft | 492 kts | 237° |
| 2026-05-07 02:22 | 12.71173 | -63.88389 | 35000 ft | 492 kts | 237° |
| 2026-05-07 02:23 | 12.67356 | -63.94130 | 35000 ft | 492 kts | 237° |
| 2026-05-07 02:23 | 12.63503 | -63.99910 | 35000 ft | 492 kts | 237° |
| 2026-05-07 02:24 | 12.59638 | -64.05690 | 35000 ft | 492 kts | 237° |
| 2026-05-07 02:24 | 12.55759 | -64.11476 | 35000 ft | 492 kts | 237° |
| 2026-05-07 02:25 | 12.51891 | -64.17234 | 35000 ft | 492 kts | 237° |
| 2026-05-07 02:25 | 12.48002 | -64.23013 | 35000 ft | 492 kts | 237° |
| 2026-05-07 02:26 | 12.44134 | -64.28755 | 35000 ft | 492 kts | 237° |
| 2026-05-07 02:26 | 12.40872 | -64.33594 | 35000 ft | 492 kts | 237° |
| 2026-05-07 02:27 | 12.36988 | -64.39350 | 35000 ft | 492 kts | 237° |
| 2026-05-07 02:27 | 12.33089 | -64.45099 | 35000 ft | 492 kts | 237° |
| 2026-05-07 02:28 | 12.29184 | -64.50840 | 35000 ft | 492 kts | 237° |
| 2026-05-07 02:28 | 12.25270 | -64.56585 | 35000 ft | 492 kts | 237° |
| 2026-05-07 02:29 | 12.21355 | -64.62325 | 35000 ft | 492 kts | 237° |
| 2026-05-07 02:29 | 12.17422 | -64.68090 | 35000 ft | 492 kts | 237° |
| 2026-05-07 02:30 | 12.13507 | -64.73826 | 35000 ft | 492 kts | 237° |
| 2026-05-07 02:30 | 12.09595 | -64.79554 | 35000 ft | 492 kts | 237° |
| 2026-05-07 02:31 | 12.05666 | -64.85306 | 35000 ft | 492 kts | 237° |
| 2026-05-07 02:31 | 12.01760 | -64.91020 | 35000 ft | 492 kts | 237° |
| 2026-05-07 02:32 | 11.97844 | -64.96746 | 35000 ft | 492 kts | 237° |
| 2026-05-07 02:32 | 11.94032 | -65.02318 | 35000 ft | 492 kts | 237° |
| 2026-05-07 02:33 | 11.90131 | -65.08016 | 34958 ft | 492 kts | 237° |
| 2026-05-07 02:33 | 11.88177 | -65.10868 | 34689 ft | 483 kts | 237° |
| 2026-05-07 02:33 | 11.86265 | -65.13656 | 34487 ft | 472 kts | 237° |
| 2026-05-07 02:34 | 11.84384 | -65.16396 | 34266 ft | 470 kts | 237° |
| 2026-05-07 02:34 | 11.82500 | -65.19144 | 34040 ft | 470 kts | 237° |
| 2026-05-07 02:34 | 11.80649 | -65.21843 | 33817 ft | 468 kts | 237° |
| 2026-05-07 02:34 | 11.78780 | -65.24568 | 33591 ft | 466 kts | 237° |
| 2026-05-07 02:35 | 11.76913 | -65.27291 | 33364 ft | 464 kts | 237° |
| 2026-05-07 02:35 | 11.75070 | -65.29978 | 33140 ft | 463 kts | 237° |
| 2026-05-07 02:35 | 11.73221 | -65.32672 | 32914 ft | 461 kts | 237° |
| 2026-05-07 02:35 | 11.71397 | -65.35329 | 32690 ft | 459 kts | 237° |
| 2026-05-07 02:36 | 11.69558 | -65.38008 | 32463 ft | 458 kts | 237° |
| 2026-05-07 02:36 | 11.67738 | -65.40658 | 32238 ft | 456 kts | 237° |
| 2026-05-07 02:36 | 11.65912 | -65.43317 | 32012 ft | 454 kts | 237° |
| 2026-05-07 02:36 | 11.64100 | -65.45954 | 31786 ft | 453 kts | 237° |
| 2026-05-07 02:37 | 11.62291 | -65.48585 | 31560 ft | 451 kts | 237° |
| 2026-05-07 02:37 | 11.60513 | -65.51173 | 31337 ft | 449 kts | 237° |
| 2026-05-07 02:37 | 11.58701 | -65.53807 | 31109 ft | 448 kts | 237° |
| 2026-05-07 02:37 | 11.56929 | -65.56383 | 30885 ft | 446 kts | 237° |
| 2026-05-07 02:38 | 11.55147 | -65.58974 | 30659 ft | 444 kts | 237° |
| 2026-05-07 02:38 | 11.53382 | -65.61539 | 30434 ft | 442 kts | 237° |
| 2026-05-07 02:38 | 11.51619 | -65.64100 | 30209 ft | 441 kts | 237° |
| 2026-05-07 02:38 | 11.49862 | -65.66653 | 29984 ft | 439 kts | 237° |
| 2026-05-07 02:39 | 11.48102 | -65.69209 | 29757 ft | 438 kts | 237° |
| 2026-05-07 02:39 | 11.46361 | -65.71739 | 29532 ft | 436 kts | 237° |
| 2026-05-07 02:39 | 11.44592 | -65.74272 | 29305 ft | 435 kts | 236° |
| 2026-05-07 02:39 | 11.42815 | -65.76734 | 29081 ft | 433 kts | 235° |
| 2026-05-07 02:40 | 11.40983 | -65.79194 | 28854 ft | 432 kts | 234° |
| 2026-05-07 02:40 | 11.39126 | -65.81566 | 28630 ft | 431 kts | 232° |
| 2026-05-07 02:40 | 11.37156 | -65.83851 | 28406 ft | 430 kts | 230° |
| 2026-05-07 02:40 | 11.35087 | -65.86098 | 28150 ft | 430 kts | 228° |
| 2026-05-07 02:41 | 11.33026 | -65.88243 | 27863 ft | 426 kts | 227° |
| 2026-05-07 02:41 | 11.30932 | -65.90362 | 27563 ft | 421 kts | 227° |
| 2026-05-07 02:41 | 11.28819 | -65.92465 | 27258 ft | 417 kts | 226° |
| 2026-05-07 02:41 | 11.26763 | -65.94493 | 26960 ft | 413 kts | 226° |
| 2026-05-07 02:42 | 11.24689 | -65.96531 | 26657 ft | 410 kts | 226° |
| 2026-05-07 02:42 | 11.22659 | -65.98523 | 26359 ft | 407 kts | 226° |
| 2026-05-07 02:42 | 11.20613 | -66.00533 | 26056 ft | 405 kts | 226° |
| 2026-05-07 02:42 | 11.18597 | -66.02516 | 25756 ft | 403 kts | 226° |
| 2026-05-07 02:43 | 11.16573 | -66.04511 | 25453 ft | 400 kts | 226° |
| 2026-05-07 02:43 | 11.14595 | -66.06466 | 25154 ft | 398 kts | 226° |
| 2026-05-07 02:43 | 11.12596 | -66.08444 | 24851 ft | 396 kts | 226° |
| 2026-05-07 02:43 | 11.10645 | -66.10379 | 24553 ft | 394 kts | 226° |
| 2026-05-07 02:44 | 11.08666 | -66.12344 | 24249 ft | 392 kts | 227° |
| 2026-05-07 02:44 | 11.06738 | -66.14258 | 23952 ft | 390 kts | 227° |
| 2026-05-07 02:44 | 11.04804 | -66.16182 | 23652 ft | 388 kts | 227° |
| 2026-05-07 02:44 | 11.02870 | -66.18106 | 23350 ft | 386 kts | 227° |
| 2026-05-07 02:45 | 11.00945 | -66.20022 | 23048 ft | 384 kts | 227° |
| 2026-05-07 02:45 | 10.99037 | -66.21921 | 22747 ft | 383 kts | 227° |
| 2026-05-07 02:45 | 10.97140 | -66.23810 | 22447 ft | 381 kts | 227° |
| 2026-05-07 02:45 | 10.95254 | -66.25683 | 22147 ft | 379 kts | 227° |
| 2026-05-07 02:46 | 10.93355 | -66.27556 | 21844 ft | 377 kts | 226° |
| 2026-05-07 02:46 | 10.91478 | -66.29398 | 21545 ft | 375 kts | 226° |
| 2026-05-07 02:46 | 10.89598 | -66.31236 | 21244 ft | 373 kts | 226° |
| 2026-05-07 02:46 | 10.87744 | -66.33043 | 20946 ft | 372 kts | 226° |
| 2026-05-07 02:47 | 10.85877 | -66.34859 | 20645 ft | 370 kts | 226° |
| 2026-05-07 02:47 | 10.84026 | -66.36700 | 20338 ft | 367 kts | 229° |
| 2026-05-07 02:47 | 10.82587 | -66.38795 | 20032 ft | 363 kts | 241° |
| 2026-05-07 02:47 | 10.81550 | -66.41124 | 19743 ft | 361 kts | 250° |
| 2026-05-07 02:48 | 10.80784 | -66.43543 | 19449 ft | 359 kts | 255° |
| 2026-05-07 02:48 | 10.80185 | -66.46027 | 19127 ft | 352 kts | 258° |
| 2026-05-07 02:48 | 10.79712 | -66.48409 | 18550 ft | 344 kts | 260° |
| 2026-05-07 02:48 | 10.79299 | -66.50791 | 17926 ft | 338 kts | 261° |
| 2026-05-07 02:49 | 10.78921 | -66.53154 | 17294 ft | 333 kts | 261° |
| 2026-05-07 02:49 | 10.78568 | -66.55429 | 16677 ft | 328 kts | 262° |
| 2026-05-07 02:49 | 10.78438 | -66.56272 | 16446 ft | 327 kts | 262° |
| 2026-05-07 02:49 | 10.78089 | -66.58522 | 15826 ft | 323 kts | 262° |
| 2026-05-07 02:50 | 10.77784 | -66.60784 | 15194 ft | 319 kts | 264° |
| 2026-05-07 02:50 | 10.77688 | -66.63025 | 14572 ft | 316 kts | 269° |
| 2026-05-07 02:50 | 10.77712 | -66.65230 | 13954 ft | 313 kts | 271° |
| 2026-05-07 02:50 | 10.77792 | -66.67438 | 13329 ft | 311 kts | 272° |
| 2026-05-07 02:51 | 10.77893 | -66.69629 | 12703 ft | 309 kts | 272° |
| 2026-05-07 02:51 | 10.77995 | -66.71808 | 12076 ft | 307 kts | 272° |
| 2026-05-07 02:51 | 10.78090 | -66.73966 | 11452 ft | 305 kts | 272° |
| 2026-05-07 02:51 | 10.78173 | -66.76111 | 10827 ft | 303 kts | 272° |
| 2026-05-07 02:52 | 10.78246 | -66.78259 | 10198 ft | 301 kts | 271° |
| 2026-05-07 02:52 | 10.78307 | -66.80366 | 9577 ft | 300 kts | 271° |
| 2026-05-07 02:52 | 10.78361 | -66.82507 | 8944 ft | 298 kts | 271° |
| 2026-05-07 02:52 | 10.78408 | -66.84585 | 8325 ft | 297 kts | 271° |
| 2026-05-07 02:53 | 10.78450 | -66.86690 | 7696 ft | 295 kts | 271° |
| 2026-05-07 02:53 | 10.78488 | -66.88760 | 7159 ft | 291 kts | 271° |
| 2026-05-07 02:53 | 10.78523 | -66.90807 | 6725 ft | 284 kts | 271° |
| 2026-05-07 02:53 | 10.78554 | -66.92779 | 6278 ft | 279 kts | 271° |
| 2026-05-07 02:54 | 10.78580 | -66.94745 | 5825 ft | 276 kts | 272° |
| 2026-05-07 02:54 | 10.78605 | -66.96677 | 5522 ft | 269 kts | 272° |
| 2026-05-07 02:54 | 10.78632 | -66.98551 | 5390 ft | 257 kts | 272° |
| 2026-05-07 02:54 | 10.78659 | -67.00336 | 5259 ft | 248 kts | 272° |
| 2026-05-07 02:55 | 10.78686 | -67.02075 | 5129 ft | 241 kts | 272° |
| 2026-05-07 02:55 | 10.78713 | -67.03753 | 5005 ft | 238 kts | 272° |
| 2026-05-07 02:55 | 10.78736 | -67.05428 | 4902 ft | 238 kts | 271° |
| 2026-05-07 02:55 | 10.78395 | -67.07075 | 4781 ft | 241 kts | 253° |
| 2026-05-07 02:56 | 10.77640 | -67.08624 | 4708 ft | 247 kts | 240° |
| 2026-05-07 02:56 | 10.76632 | -67.10039 | 4632 ft | 248 kts | 235° |
| 2026-05-07 02:56 | 10.75931 | -67.11627 | 4495 ft | 247 kts | 253° |
| 2026-05-07 02:56 | 10.75552 | -67.13345 | 4441 ft | 249 kts | 256° |
| 2026-05-07 02:57 | 10.75228 | -67.15052 | 4309 ft | 248 kts | 266° |
| 2026-05-07 02:57 | 10.75592 | -67.16772 | 4210 ft | 250 kts | 289° |
| 2026-05-07 02:57 | 10.76433 | -67.18315 | 4154 ft | 254 kts | 301° |
| 2026-05-07 02:57 | 10.77440 | -67.19821 | 4059 ft | 255 kts | 304° |
| 2026-05-07 02:58 | 10.78469 | -67.21276 | 3959 ft | 253 kts | 306° |
| 2026-05-07 02:58 | 10.79239 | -67.22868 | 3856 ft | 251 kts | 288° |
| 2026-05-07 02:58 | 10.79312 | -67.24633 | 3835 ft | 257 kts | 265° |
| 2026-05-07 02:58 | 10.78676 | -67.26355 | 3814 ft | 262 kts | 242° |
| 2026-05-07 02:59 | 10.77434 | -67.27697 | 3794 ft | 264 kts | 220° |
| 2026-05-07 02:59 | 10.76376 | -67.28328 | 3805 ft | 264 kts | 209° |
| 2026-05-07 02:59 | 10.74656 | -67.29011 | 3793 ft | 262 kts | 199° |
| 2026-05-07 02:59 | 10.72881 | -67.29252 | 3732 ft | 254 kts | 180° |
| 2026-05-07 03:00 | 10.71169 | -67.29121 | 3737 ft | 238 kts | 178° |
| 2026-05-07 03:00 | 10.69563 | -67.29136 | 3712 ft | 226 kts | 180° |
| 2026-05-07 03:00 | 10.68028 | -67.29054 | 3674 ft | 216 kts | 175° |
| 2026-05-07 03:00 | 10.66589 | -67.28797 | 3637 ft | 206 kts | 168° |
| 2026-05-07 03:01 | 10.65255 | -67.28352 | 3600 ft | 198 kts | 160° |
| 2026-05-07 03:01 | 10.64034 | -67.27737 | 3523 ft | 194 kts | 152° |
| 2026-05-07 03:01 | 10.62918 | -67.26968 | 3444 ft | 192 kts | 144° |
| 2026-05-07 03:01 | 10.61923 | -67.26071 | 3367 ft | 190 kts | 137° |
| 2026-05-07 03:02 | 10.61049 | -67.25058 | 3292 ft | 190 kts | 129° |
| 2026-05-07 03:02 | 10.60315 | -67.23954 | 3217 ft | 190 kts | 122° |
| 2026-05-07 03:02 | 10.59719 | -67.22753 | 3142 ft | 190 kts | 115° |
| 2026-05-07 03:02 | 10.59286 | -67.21499 | 3068 ft | 190 kts | 108° |
| 2026-05-07 03:03 | 10.59015 | -67.20172 | 2992 ft | 190 kts | 100° |
| 2026-05-07 03:03 | 10.58987 | -67.18835 | 2909 ft | 189 kts | 88° |
| 2026-05-07 03:03 | 10.59132 | -67.17520 | 2853 ft | 190 kts | 83° |
| 2026-05-07 03:03 | 10.59294 | -67.16171 | 2778 ft | 190 kts | 83° |
| 2026-05-07 03:04 | 10.59446 | -67.14859 | 2690 ft | 181 kts | 83° |
| 2026-05-07 03:04 | 10.59592 | -67.13599 | 2612 ft | 181 kts | 83° |
| 2026-05-07 03:04 | 10.59740 | -67.12323 | 2542 ft | 183 kts | 83° |
| 2026-05-07 03:04 | 10.59885 | -67.11073 | 2372 ft | 171 kts | 83° |
| 2026-05-07 03:05 | 10.60009 | -67.09883 | 2221 ft | 173 kts | 83° |
| 2026-05-07 03:05 | 10.60140 | -67.08702 | 2123 ft | 164 kts | 85° |
| 2026-05-07 03:05 | 10.60207 | -67.07579 | 1955 ft | 153 kts | 87° |
| 2026-05-07 03:05 | 10.60228 | -67.06499 | 1680 ft | 156 kts | 88° |
| 2026-05-07 03:06 | 10.60261 | -67.05382 | 1437 ft | 159 kts | 88° |
| 2026-05-07 03:06 | 10.60287 | -67.04249 | 1166 ft | 159 kts | 88° |
| 2026-05-07 03:06 | 10.60318 | -67.03123 | 784 ft | 159 kts | 88° |
| 2026-05-07 03:06 | 10.60352 | -67.02007 | 500 ft | 152 kts | 88° |
| 2026-05-07 03:07 | 10.60380 | -67.00954 | 260 ft | 143 kts | 88° |
| 2026-05-07 03:07 | 10.60408 | -67.00062 | 253 ft | 81 kts | 87° |
| 2026-05-07 03:07 | 10.60418 | -66.99829 | 253 ft | 12 kts | 88° |
| 2026-05-07 03:07 | 10.60421 | -66.99778 | 253 ft | 3 kts | 88° |
| 2026-05-07 03:08 | 10.60421 | -66.99764 | 253 ft | 2 kts | 88° |
| 2026-05-07 03:08 | 10.60417 | -66.99717 | 253 ft | 5 kts | 112° |
| 2026-05-07 03:08 | 10.60411 | -66.99705 | 253 ft | 0 kts | 119° |
| 2026-05-07 03:08 | 10.60399 | -66.99687 | 253 ft | 8 kts | 130° |
| 2026-05-07 03:09 | 10.60351 | -66.99663 | 253 ft | 4 kts | 173° |
| 2026-05-07 03:09 | 10.60340 | -66.99662 | 253 ft | 0 kts | 176° |
| 2026-05-07 03:09 | 10.60327 | -66.99662 | 253 ft | 4 kts | 177° |
| 2026-05-07 03:09 | 10.60288 | -66.99660 | 253 ft | 7 kts | 177° |
| 2026-05-07 03:10 | 10.60239 | -66.99657 | 253 ft | 7 kts | 177° |
| 2026-05-07 03:10 | 10.60184 | -66.99654 | 253 ft | 8 kts | 177° |
| 2026-05-07 03:10 | 10.60163 | -66.99661 | 253 ft | 0 kts | 211° |
| 2026-05-07 03:11 | 10.60154 | -66.99671 | 253 ft | 6 kts | 236° |
| 2026-05-07 03:11 | 10.60143 | -66.99763 | 253 ft | 21 kts | 267° |
| 2026-05-07 03:11 | 10.60124 | -66.99955 | 253 ft | 33 kts | 271° |
| 2026-05-07 03:12 | 10.60125 | -67.00204 | 253 ft | 35 kts | 261° |
| 2026-05-07 03:12 | 10.60076 | -67.00285 | 253 ft | 6 kts | 184° |
| 2026-05-07 03:12 | 10.60056 | -67.00285 | 253 ft | 2 kts | 178° |
| 2026-05-07 03:12 | 10.60006 | -67.00281 | 253 ft | 22 kts | 173° |
| 2026-05-07 03:13 | 10.59850 | -67.00270 | 253 ft | 14 kts | 178° |
| 2026-05-07 03:13 | 10.59841 | -67.00269 | 253 ft | 0 kts | 178° |
| 2026-05-07 03:15 | 40.48994 | -3.56643 | 2000 ft | 0 kts | 317° |
| 2026-05-07 03:16 | 37.61376 | -122.35776 | 12 ft | 0 kts | 298° |